<?xml version="1.0" encoding="UTF-8" standalone="no" ?>
<gpx xmlns="http://www.topografix.com/GPX/1/1" xmlns:xsi="http://www.w3.org/2001/XMLSchema-instance" xsi:schemaLocation="http://www.topografix.com/GPX/1/1 http://www.topografix.com/GPX/1/1/gpx.xsd" version="1.1" creator="VisuGPX - https://www.visugpx.com">
  <metadata>
    <name>le vernet_38km_1120+</name>
  </metadata>
  <trk>
    <name><![CDATA[le vernet_38km_1120+_1]]></name>
    <extensions>
      <line xmlns="http://www.topografix.com/GPX/gpx_style/0/2">
        <color>0000FF</color>
        <width>4</width>
      </line>
    </extensions>
    <trkseg>
      <trkpt lat="46.10222" lon="3.47477">
        <ele>392.2</ele>
        <time>2025-02-05T19:27:13Z</time>
      </trkpt>
      <trkpt lat="46.10357" lon="3.47495">
        <ele>391</ele>
        <time>2025-02-05T19:27:45Z</time>
      </trkpt>
      <trkpt lat="46.10441" lon="3.47494">
        <ele>387</ele>
        <time>2025-02-05T19:28:04Z</time>
      </trkpt>
      <trkpt lat="46.10459" lon="3.47497">
        <ele>386</ele>
        <time>2025-02-05T19:28:09Z</time>
      </trkpt>
      <trkpt lat="46.10512" lon="3.47515">
        <ele>385</ele>
        <time>2025-02-05T19:28:21Z</time>
      </trkpt>
      <trkpt lat="46.10567" lon="3.47506">
        <ele>381</ele>
        <time>2025-02-05T19:28:34Z</time>
      </trkpt>
      <trkpt lat="46.10644" lon="3.47449">
        <ele>373</ele>
        <time>2025-02-05T19:28:54Z</time>
      </trkpt>
      <trkpt lat="46.10658" lon="3.47444">
        <ele>373</ele>
        <time>2025-02-05T19:28:58Z</time>
      </trkpt>
      <trkpt lat="46.10667" lon="3.47441">
        <ele>372</ele>
        <time>2025-02-05T19:29:00Z</time>
      </trkpt>
      <trkpt lat="46.10694" lon="3.47491">
        <ele>382</ele>
        <time>2025-02-05T19:29:10Z</time>
      </trkpt>
      <trkpt lat="46.10719" lon="3.47551">
        <ele>394</ele>
        <time>2025-02-05T19:29:21Z</time>
      </trkpt>
      <trkpt lat="46.10735" lon="3.47579">
        <ele>401</ele>
        <time>2025-02-05T19:29:27Z</time>
      </trkpt>
      <trkpt lat="46.10743" lon="3.47586">
        <ele>403</ele>
        <time>2025-02-05T19:29:30Z</time>
      </trkpt>
      <trkpt lat="46.10763" lon="3.47583">
        <ele>405</ele>
        <time>2025-02-05T19:29:34Z</time>
      </trkpt>
      <trkpt lat="46.10768" lon="3.47638">
        <ele>411</ele>
        <time>2025-02-05T19:29:43Z</time>
      </trkpt>
      <trkpt lat="46.10788" lon="3.47707">
        <ele>418</ele>
        <time>2025-02-05T19:29:55Z</time>
      </trkpt>
      <trkpt lat="46.10812" lon="3.47748">
        <ele>422</ele>
        <time>2025-02-05T19:30:04Z</time>
      </trkpt>
      <trkpt lat="46.10865" lon="3.47751">
        <ele>421</ele>
        <time>2025-02-05T19:30:16Z</time>
      </trkpt>
      <trkpt lat="46.10925" lon="3.47718">
        <ele>416</ele>
        <time>2025-02-05T19:30:31Z</time>
      </trkpt>
      <trkpt lat="46.10917" lon="3.47743">
        <ele>419</ele>
        <time>2025-02-05T19:30:36Z</time>
      </trkpt>
      <trkpt lat="46.10907" lon="3.47765">
        <ele>421</ele>
        <time>2025-02-05T19:30:40Z</time>
      </trkpt>
      <trkpt lat="46.10898" lon="3.4778">
        <ele>421</ele>
        <time>2025-02-05T19:30:43Z</time>
      </trkpt>
      <trkpt lat="46.10896" lon="3.4779">
        <ele>422</ele>
        <time>2025-02-05T19:30:45Z</time>
      </trkpt>
      <trkpt lat="46.10855" lon="3.47827">
        <ele>426</ele>
        <time>2025-02-05T19:30:56Z</time>
      </trkpt>
      <trkpt lat="46.10845" lon="3.47832">
        <ele>427</ele>
        <time>2025-02-05T19:30:59Z</time>
      </trkpt>
      <trkpt lat="46.1081" lon="3.47843">
        <ele>429</ele>
        <time>2025-02-05T19:31:07Z</time>
      </trkpt>
      <trkpt lat="46.10796" lon="3.47849">
        <ele>429</ele>
        <time>2025-02-05T19:31:11Z</time>
      </trkpt>
      <trkpt lat="46.10787" lon="3.47844">
        <ele>429</ele>
        <time>2025-02-05T19:31:13Z</time>
      </trkpt>
      <trkpt lat="46.10778" lon="3.47861">
        <ele>430</ele>
        <time>2025-02-05T19:31:16Z</time>
      </trkpt>
      <trkpt lat="46.10736" lon="3.47903">
        <ele>434</ele>
        <time>2025-02-05T19:31:28Z</time>
      </trkpt>
      <trkpt lat="46.10702" lon="3.47923">
        <ele>436</ele>
        <time>2025-02-05T19:31:37Z</time>
      </trkpt>
      <trkpt lat="46.10684" lon="3.47967">
        <ele>439</ele>
        <time>2025-02-05T19:31:45Z</time>
      </trkpt>
      <trkpt lat="46.10676" lon="3.47987">
        <ele>441</ele>
        <time>2025-02-05T19:31:49Z</time>
      </trkpt>
      <trkpt lat="46.10655" lon="3.48025">
        <ele>441</ele>
        <time>2025-02-05T19:31:57Z</time>
      </trkpt>
      <trkpt lat="46.10653" lon="3.48043">
        <ele>441</ele>
        <time>2025-02-05T19:32:00Z</time>
      </trkpt>
      <trkpt lat="46.10644" lon="3.48072">
        <ele>440</ele>
        <time>2025-02-05T19:32:05Z</time>
      </trkpt>
      <trkpt lat="46.10634" lon="3.48119">
        <ele>438</ele>
        <time>2025-02-05T19:32:13Z</time>
      </trkpt>
      <trkpt lat="46.10619" lon="3.48118">
        <ele>436</ele>
        <time>2025-02-05T19:32:16Z</time>
      </trkpt>
      <trkpt lat="46.10608" lon="3.48123">
        <ele>434</ele>
        <time>2025-02-05T19:32:19Z</time>
      </trkpt>
      <trkpt lat="46.10596" lon="3.48133">
        <ele>433</ele>
        <time>2025-02-05T19:32:22Z</time>
      </trkpt>
      <trkpt lat="46.10589" lon="3.48143">
        <ele>432</ele>
        <time>2025-02-05T19:32:24Z</time>
      </trkpt>
      <trkpt lat="46.10582" lon="3.48142">
        <ele>431</ele>
        <time>2025-02-05T19:32:26Z</time>
      </trkpt>
      <trkpt lat="46.10566" lon="3.48131">
        <ele>428</ele>
        <time>2025-02-05T19:32:30Z</time>
      </trkpt>
      <trkpt lat="46.10561" lon="3.48148">
        <ele>427</ele>
        <time>2025-02-05T19:32:33Z</time>
      </trkpt>
      <trkpt lat="46.10548" lon="3.48164">
        <ele>425</ele>
        <time>2025-02-05T19:32:37Z</time>
      </trkpt>
      <trkpt lat="46.10515" lon="3.48185">
        <ele>419</ele>
        <time>2025-02-05T19:32:46Z</time>
      </trkpt>
      <trkpt lat="46.10498" lon="3.48203">
        <ele>416</ele>
        <time>2025-02-05T19:32:51Z</time>
      </trkpt>
      <trkpt lat="46.10486" lon="3.48222">
        <ele>414</ele>
        <time>2025-02-05T19:32:55Z</time>
      </trkpt>
      <trkpt lat="46.10483" lon="3.48244">
        <ele>414</ele>
        <time>2025-02-05T19:32:58Z</time>
      </trkpt>
      <trkpt lat="46.10474" lon="3.48264">
        <ele>411</ele>
        <time>2025-02-05T19:33:02Z</time>
      </trkpt>
      <trkpt lat="46.1046" lon="3.48279">
        <ele>407</ele>
        <time>2025-02-05T19:33:06Z</time>
      </trkpt>
      <trkpt lat="46.1042" lon="3.48297">
        <ele>400</ele>
        <time>2025-02-05T19:33:16Z</time>
      </trkpt>
      <trkpt lat="46.1038" lon="3.48305">
        <ele>394</ele>
        <time>2025-02-05T19:33:26Z</time>
      </trkpt>
      <trkpt lat="46.10347" lon="3.48301">
        <ele>390</ele>
        <time>2025-02-05T19:33:33Z</time>
      </trkpt>
      <trkpt lat="46.10316" lon="3.48293">
        <ele>387</ele>
        <time>2025-02-05T19:33:41Z</time>
      </trkpt>
      <trkpt lat="46.10278" lon="3.48275">
        <ele>383</ele>
        <time>2025-02-05T19:33:50Z</time>
      </trkpt>
      <trkpt lat="46.10236" lon="3.48246">
        <ele>381</ele>
        <time>2025-02-05T19:34:01Z</time>
      </trkpt>
      <trkpt lat="46.10188" lon="3.48186">
        <ele>375</ele>
        <time>2025-02-05T19:34:16Z</time>
      </trkpt>
      <trkpt lat="46.10179" lon="3.48178">
        <ele>374</ele>
        <time>2025-02-05T19:34:18Z</time>
      </trkpt>
      <trkpt lat="46.10173" lon="3.48163">
        <ele>374</ele>
        <time>2025-02-05T19:34:21Z</time>
      </trkpt>
      <trkpt lat="46.1017" lon="3.48149">
        <ele>374</ele>
        <time>2025-02-05T19:34:23Z</time>
      </trkpt>
      <trkpt lat="46.10169" lon="3.48139">
        <ele>374</ele>
        <time>2025-02-05T19:34:25Z</time>
      </trkpt>
      <trkpt lat="46.10174" lon="3.48122">
        <ele>375</ele>
        <time>2025-02-05T19:34:28Z</time>
      </trkpt>
      <trkpt lat="46.10181" lon="3.48107">
        <ele>376</ele>
        <time>2025-02-05T19:34:31Z</time>
      </trkpt>
      <trkpt lat="46.10185" lon="3.48093">
        <ele>377</ele>
        <time>2025-02-05T19:34:33Z</time>
      </trkpt>
      <trkpt lat="46.10194" lon="3.48076">
        <ele>378</ele>
        <time>2025-02-05T19:34:37Z</time>
      </trkpt>
      <trkpt lat="46.10199" lon="3.4805">
        <ele>379</ele>
        <time>2025-02-05T19:34:41Z</time>
      </trkpt>
      <trkpt lat="46.10215" lon="3.48017">
        <ele>379</ele>
        <time>2025-02-05T19:34:48Z</time>
      </trkpt>
      <trkpt lat="46.10223" lon="3.47994">
        <ele>378</ele>
        <time>2025-02-05T19:34:52Z</time>
      </trkpt>
      <trkpt lat="46.10223" lon="3.47985">
        <ele>379</ele>
        <time>2025-02-05T19:34:53Z</time>
      </trkpt>
      <trkpt lat="46.1022" lon="3.47977">
        <ele>379</ele>
        <time>2025-02-05T19:34:55Z</time>
      </trkpt>
      <trkpt lat="46.10213" lon="3.47974">
        <ele>380</ele>
        <time>2025-02-05T19:34:56Z</time>
      </trkpt>
      <trkpt lat="46.10206" lon="3.47986">
        <ele>380</ele>
        <time>2025-02-05T19:34:59Z</time>
      </trkpt>
      <trkpt lat="46.10189" lon="3.47996">
        <ele>380</ele>
        <time>2025-02-05T19:35:03Z</time>
      </trkpt>
      <trkpt lat="46.10185" lon="3.48001">
        <ele>380</ele>
        <time>2025-02-05T19:35:05Z</time>
      </trkpt>
      <trkpt lat="46.10164" lon="3.48049">
        <ele>378</ele>
        <time>2025-02-05T19:35:14Z</time>
      </trkpt>
      <trkpt lat="46.10151" lon="3.48066">
        <ele>376</ele>
        <time>2025-02-05T19:35:18Z</time>
      </trkpt>
      <trkpt lat="46.10137" lon="3.48091">
        <ele>374</ele>
        <time>2025-02-05T19:35:23Z</time>
      </trkpt>
      <trkpt lat="46.10127" lon="3.48113">
        <ele>372</ele>
        <time>2025-02-05T19:35:27Z</time>
      </trkpt>
      <trkpt lat="46.10122" lon="3.48138">
        <ele>370</ele>
        <time>2025-02-05T19:35:31Z</time>
      </trkpt>
      <trkpt lat="46.10112" lon="3.48169">
        <ele>366</ele>
        <time>2025-02-05T19:35:37Z</time>
      </trkpt>
      <trkpt lat="46.10085" lon="3.48174">
        <ele>363</ele>
        <time>2025-02-05T19:35:43Z</time>
      </trkpt>
      <trkpt lat="46.10087" lon="3.48185">
        <ele>362</ele>
        <time>2025-02-05T19:35:45Z</time>
      </trkpt>
      <trkpt lat="46.10088" lon="3.48206">
        <ele>361</ele>
        <time>2025-02-05T19:35:49Z</time>
      </trkpt>
      <trkpt lat="46.10081" lon="3.48214">
        <ele>360</ele>
        <time>2025-02-05T19:35:51Z</time>
      </trkpt>
      <trkpt lat="46.10096" lon="3.48233">
        <ele>360</ele>
        <time>2025-02-05T19:35:55Z</time>
      </trkpt>
      <trkpt lat="46.10101" lon="3.48247">
        <ele>360</ele>
        <time>2025-02-05T19:35:58Z</time>
      </trkpt>
      <trkpt lat="46.10121" lon="3.48279">
        <ele>362</ele>
        <time>2025-02-05T19:36:05Z</time>
      </trkpt>
      <trkpt lat="46.10126" lon="3.48284">
        <ele>362</ele>
        <time>2025-02-05T19:36:06Z</time>
      </trkpt>
      <trkpt lat="46.1012" lon="3.48289">
        <ele>362</ele>
        <time>2025-02-05T19:36:08Z</time>
      </trkpt>
      <trkpt lat="46.10105" lon="3.48297">
        <ele>362</ele>
        <time>2025-02-05T19:36:12Z</time>
      </trkpt>
      <trkpt lat="46.10085" lon="3.48299">
        <ele>363</ele>
        <time>2025-02-05T19:36:16Z</time>
      </trkpt>
      <trkpt lat="46.10057" lon="3.48313">
        <ele>364</ele>
        <time>2025-02-05T19:36:23Z</time>
      </trkpt>
      <trkpt lat="46.1004" lon="3.48325">
        <ele>365</ele>
        <time>2025-02-05T19:36:28Z</time>
      </trkpt>
      <trkpt lat="46.10024" lon="3.48342">
        <ele>367</ele>
        <time>2025-02-05T19:36:32Z</time>
      </trkpt>
      <trkpt lat="46.10004" lon="3.4837">
        <ele>371</ele>
        <time>2025-02-05T19:36:39Z</time>
      </trkpt>
      <trkpt lat="46.09963" lon="3.48443">
        <ele>381</ele>
        <time>2025-02-05T19:36:54Z</time>
      </trkpt>
      <trkpt lat="46.09949" lon="3.48474">
        <ele>384</ele>
        <time>2025-02-05T19:37:00Z</time>
      </trkpt>
      <trkpt lat="46.09934" lon="3.48497">
        <ele>385</ele>
        <time>2025-02-05T19:37:05Z</time>
      </trkpt>
      <trkpt lat="46.09892" lon="3.48545">
        <ele>390</ele>
        <time>2025-02-05T19:37:18Z</time>
      </trkpt>
      <trkpt lat="46.09888" lon="3.48552">
        <ele>391</ele>
        <time>2025-02-05T19:37:19Z</time>
      </trkpt>
      <trkpt lat="46.09874" lon="3.48569">
        <ele>392</ele>
        <time>2025-02-05T19:37:23Z</time>
      </trkpt>
      <trkpt lat="46.0985" lon="3.48604">
        <ele>394</ele>
        <time>2025-02-05T19:37:31Z</time>
      </trkpt>
      <trkpt lat="46.09845" lon="3.48614">
        <ele>394</ele>
        <time>2025-02-05T19:37:33Z</time>
      </trkpt>
      <trkpt lat="46.09839" lon="3.48645">
        <ele>396</ele>
        <time>2025-02-05T19:37:39Z</time>
      </trkpt>
      <trkpt lat="46.09818" lon="3.48734">
        <ele>407</ele>
        <time>2025-02-05T19:37:54Z</time>
      </trkpt>
      <trkpt lat="46.09814" lon="3.48744">
        <ele>409</ele>
        <time>2025-02-05T19:37:56Z</time>
      </trkpt>
      <trkpt lat="46.09809" lon="3.48752">
        <ele>409</ele>
        <time>2025-02-05T19:37:57Z</time>
      </trkpt>
      <trkpt lat="46.09811" lon="3.48771">
        <ele>412</ele>
        <time>2025-02-05T19:38:01Z</time>
      </trkpt>
      <trkpt lat="46.09819" lon="3.48809">
        <ele>418</ele>
        <time>2025-02-05T19:38:07Z</time>
      </trkpt>
      <trkpt lat="46.09825" lon="3.48853">
        <ele>425</ele>
        <time>2025-02-05T19:38:14Z</time>
      </trkpt>
      <trkpt lat="46.0982" lon="3.48876">
        <ele>427</ele>
        <time>2025-02-05T19:38:18Z</time>
      </trkpt>
      <trkpt lat="46.09794" lon="3.4897">
        <ele>433</ele>
        <time>2025-02-05T19:38:35Z</time>
      </trkpt>
      <trkpt lat="46.09787" lon="3.48986">
        <ele>433</ele>
        <time>2025-02-05T19:38:38Z</time>
      </trkpt>
      <trkpt lat="46.09765" lon="3.49002">
        <ele>432</ele>
        <time>2025-02-05T19:38:43Z</time>
      </trkpt>
      <trkpt lat="46.09755" lon="3.49025">
        <ele>433</ele>
        <time>2025-02-05T19:38:48Z</time>
      </trkpt>
      <trkpt lat="46.09747" lon="3.49045">
        <ele>435</ele>
        <time>2025-02-05T19:38:51Z</time>
      </trkpt>
      <trkpt lat="46.09742" lon="3.49069">
        <ele>438</ele>
        <time>2025-02-05T19:38:56Z</time>
      </trkpt>
      <trkpt lat="46.09733" lon="3.49076">
        <ele>438</ele>
        <time>2025-02-05T19:38:58Z</time>
      </trkpt>
      <trkpt lat="46.09697" lon="3.49118">
        <ele>437</ele>
        <time>2025-02-05T19:39:09Z</time>
      </trkpt>
      <trkpt lat="46.09685" lon="3.4914">
        <ele>437</ele>
        <time>2025-02-05T19:39:13Z</time>
      </trkpt>
      <trkpt lat="46.09674" lon="3.49165">
        <ele>437</ele>
        <time>2025-02-05T19:39:18Z</time>
      </trkpt>
      <trkpt lat="46.09663" lon="3.49179">
        <ele>437</ele>
        <time>2025-02-05T19:39:21Z</time>
      </trkpt>
      <trkpt lat="46.0965" lon="3.49187">
        <ele>439</ele>
        <time>2025-02-05T19:39:25Z</time>
      </trkpt>
      <trkpt lat="46.09637" lon="3.49179">
        <ele>439</ele>
        <time>2025-02-05T19:39:28Z</time>
      </trkpt>
      <trkpt lat="46.09627" lon="3.49164">
        <ele>438</ele>
        <time>2025-02-05T19:39:31Z</time>
      </trkpt>
      <trkpt lat="46.09603" lon="3.49118">
        <ele>436</ele>
        <time>2025-02-05T19:39:41Z</time>
      </trkpt>
      <trkpt lat="46.09592" lon="3.49104">
        <ele>436</ele>
        <time>2025-02-05T19:39:44Z</time>
      </trkpt>
      <trkpt lat="46.09575" lon="3.4909">
        <ele>436</ele>
        <time>2025-02-05T19:39:49Z</time>
      </trkpt>
      <trkpt lat="46.09567" lon="3.49098">
        <ele>436</ele>
        <time>2025-02-05T19:39:51Z</time>
      </trkpt>
      <trkpt lat="46.09556" lon="3.49139">
        <ele>438</ele>
        <time>2025-02-05T19:39:58Z</time>
      </trkpt>
      <trkpt lat="46.09548" lon="3.49153">
        <ele>439</ele>
        <time>2025-02-05T19:40:01Z</time>
      </trkpt>
      <trkpt lat="46.09532" lon="3.49202">
        <ele>442</ele>
        <time>2025-02-05T19:40:10Z</time>
      </trkpt>
      <trkpt lat="46.09487" lon="3.49294">
        <ele>447</ele>
        <time>2025-02-05T19:40:28Z</time>
      </trkpt>
      <trkpt lat="46.09477" lon="3.49323">
        <ele>446</ele>
        <time>2025-02-05T19:40:33Z</time>
      </trkpt>
      <trkpt lat="46.09464" lon="3.49352">
        <ele>446</ele>
        <time>2025-02-05T19:40:39Z</time>
      </trkpt>
      <trkpt lat="46.09453" lon="3.494">
        <ele>446</ele>
        <time>2025-02-05T19:40:47Z</time>
      </trkpt>
      <trkpt lat="46.09431" lon="3.49464">
        <ele>447</ele>
        <time>2025-02-05T19:40:59Z</time>
      </trkpt>
      <trkpt lat="46.09418" lon="3.49498">
        <ele>448</ele>
        <time>2025-02-05T19:41:05Z</time>
      </trkpt>
      <trkpt lat="46.09412" lon="3.49526">
        <ele>448</ele>
        <time>2025-02-05T19:41:10Z</time>
      </trkpt>
      <trkpt lat="46.09411" lon="3.49549">
        <ele>449</ele>
        <time>2025-02-05T19:41:13Z</time>
      </trkpt>
      <trkpt lat="46.09412" lon="3.49581">
        <ele>451</ele>
        <time>2025-02-05T19:41:19Z</time>
      </trkpt>
      <trkpt lat="46.09411" lon="3.4961">
        <ele>451</ele>
        <time>2025-02-05T19:41:23Z</time>
      </trkpt>
      <trkpt lat="46.09429" lon="3.49723">
        <ele>458</ele>
        <time>2025-02-05T19:41:42Z</time>
      </trkpt>
      <trkpt lat="46.0943" lon="3.49808">
        <ele>460</ele>
        <time>2025-02-05T19:41:56Z</time>
      </trkpt>
      <trkpt lat="46.09435" lon="3.4985">
        <ele>462</ele>
        <time>2025-02-05T19:42:03Z</time>
      </trkpt>
      <trkpt lat="46.09436" lon="3.49889">
        <ele>463</ele>
        <time>2025-02-05T19:42:09Z</time>
      </trkpt>
      <trkpt lat="46.09434" lon="3.49905">
        <ele>463</ele>
        <time>2025-02-05T19:42:12Z</time>
      </trkpt>
      <trkpt lat="46.0943" lon="3.49918">
        <ele>462</ele>
        <time>2025-02-05T19:42:14Z</time>
      </trkpt>
      <trkpt lat="46.0941" lon="3.49954">
        <ele>459</ele>
        <time>2025-02-05T19:42:22Z</time>
      </trkpt>
      <trkpt lat="46.09402" lon="3.49976">
        <ele>459</ele>
        <time>2025-02-05T19:42:26Z</time>
      </trkpt>
      <trkpt lat="46.09382" lon="3.50053">
        <ele>461</ele>
        <time>2025-02-05T19:42:39Z</time>
      </trkpt>
      <trkpt lat="46.09349" lon="3.50191">
        <ele>459</ele>
        <time>2025-02-05T19:43:03Z</time>
      </trkpt>
      <trkpt lat="46.09346" lon="3.50233">
        <ele>459</ele>
        <time>2025-02-05T19:43:09Z</time>
      </trkpt>
      <trkpt lat="46.09345" lon="3.50282">
        <ele>458</ele>
        <time>2025-02-05T19:43:17Z</time>
      </trkpt>
      <trkpt lat="46.09338" lon="3.50343">
        <ele>457</ele>
        <time>2025-02-05T19:43:27Z</time>
      </trkpt>
      <trkpt lat="46.09328" lon="3.50393">
        <ele>455.6</ele>
      </trkpt>
      <trkpt lat="46.09304" lon="3.50464">
        <ele>455</ele>
        <time>2025-02-05T19:43:48Z</time>
      </trkpt>
      <trkpt lat="46.09285" lon="3.50524">
        <ele>456</ele>
        <time>2025-02-05T19:43:59Z</time>
      </trkpt>
      <trkpt lat="46.0928" lon="3.50542">
        <ele>457</ele>
        <time>2025-02-05T19:44:02Z</time>
      </trkpt>
      <trkpt lat="46.09273" lon="3.50552">
        <ele>457</ele>
        <time>2025-02-05T19:44:05Z</time>
      </trkpt>
      <trkpt lat="46.09264" lon="3.50567">
        <ele>458</ele>
        <time>2025-02-05T19:44:08Z</time>
      </trkpt>
      <trkpt lat="46.09244" lon="3.50587">
        <ele>459</ele>
        <time>2025-02-05T19:44:13Z</time>
      </trkpt>
      <trkpt lat="46.09232" lon="3.506">
        <ele>459</ele>
        <time>2025-02-05T19:44:17Z</time>
      </trkpt>
      <trkpt lat="46.09227" lon="3.50615">
        <ele>460</ele>
        <time>2025-02-05T19:44:20Z</time>
      </trkpt>
      <trkpt lat="46.09238" lon="3.50629">
        <ele>459</ele>
        <time>2025-02-05T19:44:23Z</time>
      </trkpt>
      <trkpt lat="46.09301" lon="3.50631">
        <ele>456</ele>
        <time>2025-02-05T19:44:38Z</time>
      </trkpt>
      <trkpt lat="46.09333" lon="3.50662">
        <ele>452</ele>
        <time>2025-02-05T19:44:47Z</time>
      </trkpt>
      <trkpt lat="46.0935" lon="3.50671">
        <ele>450</ele>
        <time>2025-02-05T19:44:51Z</time>
      </trkpt>
      <trkpt lat="46.09376" lon="3.50684">
        <ele>447</ele>
        <time>2025-02-05T19:44:57Z</time>
      </trkpt>
      <trkpt lat="46.09406" lon="3.50694">
        <ele>444</ele>
        <time>2025-02-05T19:45:05Z</time>
      </trkpt>
      <trkpt lat="46.09427" lon="3.50696">
        <ele>441</ele>
        <time>2025-02-05T19:45:10Z</time>
      </trkpt>
      <trkpt lat="46.09445" lon="3.50695">
        <ele>433.8</ele>
      </trkpt>
      <trkpt lat="46.09445" lon="3.5068">
        <ele>442</ele>
        <time>2025-02-05T19:45:15Z</time>
      </trkpt>
      <trkpt lat="46.09463" lon="3.50657">
        <ele>427.2</ele>
        <time>2025-02-05T19:45:19Z</time>
      </trkpt>
      <trkpt lat="46.09489" lon="3.50677">
        <ele>421.8</ele>
        <time>2025-02-05T19:45:23Z</time>
      </trkpt>
      <trkpt lat="46.09509" lon="3.50689">
        <ele>418.8</ele>
      </trkpt>
      <trkpt lat="46.0953" lon="3.50735">
        <ele>411.5</ele>
        <time>2025-02-05T19:45:28Z</time>
      </trkpt>
      <trkpt lat="46.0955" lon="3.50789">
        <ele>407.1</ele>
        <time>2025-02-05T19:45:43Z</time>
      </trkpt>
      <trkpt lat="46.09572" lon="3.50835">
        <ele>421</ele>
        <time>2025-02-05T19:45:56Z</time>
      </trkpt>
      <trkpt lat="46.09587" lon="3.50864">
        <ele>418</ele>
        <time>2025-02-05T19:46:02Z</time>
      </trkpt>
      <trkpt lat="46.09612" lon="3.50896">
        <ele>414</ele>
        <time>2025-02-05T19:46:10Z</time>
      </trkpt>
      <trkpt lat="46.09672" lon="3.50965">
        <ele>404</ele>
        <time>2025-02-05T19:46:28Z</time>
      </trkpt>
      <trkpt lat="46.09703" lon="3.50961">
        <ele>400</ele>
        <time>2025-02-05T19:46:35Z</time>
      </trkpt>
      <trkpt lat="46.09724" lon="3.50943">
        <ele>397</ele>
        <time>2025-02-05T19:46:41Z</time>
      </trkpt>
      <trkpt lat="46.09754" lon="3.50907">
        <ele>393</ele>
        <time>2025-02-05T19:46:50Z</time>
      </trkpt>
      <trkpt lat="46.09776" lon="3.50886">
        <ele>395</ele>
        <time>2025-02-05T19:46:56Z</time>
      </trkpt>
      <trkpt lat="46.09807" lon="3.50863">
        <ele>395</ele>
        <time>2025-02-05T19:47:04Z</time>
      </trkpt>
      <trkpt lat="46.09842" lon="3.50878">
        <ele>389</ele>
        <time>2025-02-05T19:47:13Z</time>
      </trkpt>
      <trkpt lat="46.09854" lon="3.50894">
        <ele>386</ele>
        <time>2025-02-05T19:47:16Z</time>
      </trkpt>
      <trkpt lat="46.09889" lon="3.50913">
        <ele>380</ele>
        <time>2025-02-05T19:47:25Z</time>
      </trkpt>
      <trkpt lat="46.09903" lon="3.50916">
        <ele>378</ele>
        <time>2025-02-05T19:47:28Z</time>
      </trkpt>
      <trkpt lat="46.09934" lon="3.50919">
        <ele>374</ele>
        <time>2025-02-05T19:47:36Z</time>
      </trkpt>
      <trkpt lat="46.09943" lon="3.50922">
        <ele>373</ele>
        <time>2025-02-05T19:47:38Z</time>
      </trkpt>
      <trkpt lat="46.09949" lon="3.50929">
        <ele>373</ele>
        <time>2025-02-05T19:47:40Z</time>
      </trkpt>
      <trkpt lat="46.0996" lon="3.50956">
        <ele>376</ele>
        <time>2025-02-05T19:47:45Z</time>
      </trkpt>
      <trkpt lat="46.09971" lon="3.50968">
        <ele>376</ele>
        <time>2025-02-05T19:47:48Z</time>
      </trkpt>
      <trkpt lat="46.10002" lon="3.50984">
        <ele>371</ele>
        <time>2025-02-05T19:47:56Z</time>
      </trkpt>
      <trkpt lat="46.10011" lon="3.50988">
        <ele>370</ele>
        <time>2025-02-05T19:47:58Z</time>
      </trkpt>
      <trkpt lat="46.10031" lon="3.50993">
        <ele>367</ele>
        <time>2025-02-05T19:48:03Z</time>
      </trkpt>
      <trkpt lat="46.10047" lon="3.50989">
        <ele>363</ele>
        <time>2025-02-05T19:48:06Z</time>
      </trkpt>
      <trkpt lat="46.10062" lon="3.50992">
        <ele>361</ele>
        <time>2025-02-05T19:48:10Z</time>
      </trkpt>
      <trkpt lat="46.1009" lon="3.51014">
        <ele>359</ele>
        <time>2025-02-05T19:48:17Z</time>
      </trkpt>
      <trkpt lat="46.10098" lon="3.51031">
        <ele>358</ele>
        <time>2025-02-05T19:48:21Z</time>
      </trkpt>
      <trkpt lat="46.10111" lon="3.5105">
        <ele>356</ele>
        <time>2025-02-05T19:48:25Z</time>
      </trkpt>
      <trkpt lat="46.10117" lon="3.51064">
        <ele>356</ele>
        <time>2025-02-05T19:48:28Z</time>
      </trkpt>
      <trkpt lat="46.10124" lon="3.51099">
        <ele>354</ele>
        <time>2025-02-05T19:48:34Z</time>
      </trkpt>
      <trkpt lat="46.1012" lon="3.51113">
        <ele>354</ele>
        <time>2025-02-05T19:48:36Z</time>
      </trkpt>
      <trkpt lat="46.10097" lon="3.51151">
        <ele>356</ele>
        <time>2025-02-05T19:48:44Z</time>
      </trkpt>
      <trkpt lat="46.10075" lon="3.51203">
        <ele>352</ele>
        <time>2025-02-05T19:48:54Z</time>
      </trkpt>
      <trkpt lat="46.10052" lon="3.51267">
        <ele>344</ele>
        <time>2025-02-05T19:49:06Z</time>
      </trkpt>
      <trkpt lat="46.10041" lon="3.51312">
        <ele>338</ele>
        <time>2025-02-05T19:49:13Z</time>
      </trkpt>
      <trkpt lat="46.10065" lon="3.51291">
        <ele>336</ele>
        <time>2025-02-05T19:49:20Z</time>
      </trkpt>
      <trkpt lat="46.10115" lon="3.51264">
        <ele>331</ele>
        <time>2025-02-05T19:49:32Z</time>
      </trkpt>
      <trkpt lat="46.10184" lon="3.51216">
        <ele>327</ele>
        <time>2025-02-05T19:49:50Z</time>
      </trkpt>
      <trkpt lat="46.10202" lon="3.51198">
        <ele>328</ele>
        <time>2025-02-05T19:49:55Z</time>
      </trkpt>
      <trkpt lat="46.10214" lon="3.51177">
        <ele>327</ele>
        <time>2025-02-05T19:50:00Z</time>
      </trkpt>
      <trkpt lat="46.10224" lon="3.5115">
        <ele>327</ele>
        <time>2025-02-05T19:50:05Z</time>
      </trkpt>
      <trkpt lat="46.10235" lon="3.51122">
        <ele>327</ele>
        <time>2025-02-05T19:50:10Z</time>
      </trkpt>
      <trkpt lat="46.10241" lon="3.51098">
        <ele>328</ele>
        <time>2025-02-05T19:50:14Z</time>
      </trkpt>
      <trkpt lat="46.10254" lon="3.51119">
        <ele>326</ele>
        <time>2025-02-05T19:50:19Z</time>
      </trkpt>
      <trkpt lat="46.10267" lon="3.51134">
        <ele>328</ele>
        <time>2025-02-05T19:50:23Z</time>
      </trkpt>
      <trkpt lat="46.10293" lon="3.51148">
        <ele>333</ele>
        <time>2025-02-05T19:50:29Z</time>
      </trkpt>
      <trkpt lat="46.10298" lon="3.51157">
        <ele>333</ele>
        <time>2025-02-05T19:50:31Z</time>
      </trkpt>
      <trkpt lat="46.10299" lon="3.51174">
        <ele>333</ele>
        <time>2025-02-05T19:50:34Z</time>
      </trkpt>
      <trkpt lat="46.10296" lon="3.51196">
        <ele>334</ele>
        <time>2025-02-05T19:50:37Z</time>
      </trkpt>
      <trkpt lat="46.10282" lon="3.51223">
        <ele>332</ele>
        <time>2025-02-05T19:50:43Z</time>
      </trkpt>
      <trkpt lat="46.10269" lon="3.51255">
        <ele>331</ele>
        <time>2025-02-05T19:50:49Z</time>
      </trkpt>
      <trkpt lat="46.10247" lon="3.51305">
        <ele>333</ele>
        <time>2025-02-05T19:50:58Z</time>
      </trkpt>
      <trkpt lat="46.10222" lon="3.51388">
        <ele>343</ele>
        <time>2025-02-05T19:51:13Z</time>
      </trkpt>
      <trkpt lat="46.10213" lon="3.51426">
        <ele>348</ele>
        <time>2025-02-05T19:51:20Z</time>
      </trkpt>
      <trkpt lat="46.1019" lon="3.51436">
        <ele>347</ele>
        <time>2025-02-05T19:51:25Z</time>
      </trkpt>
      <trkpt lat="46.10182" lon="3.51431">
        <ele>345</ele>
        <time>2025-02-05T19:51:27Z</time>
      </trkpt>
      <trkpt lat="46.10203" lon="3.5147">
        <ele>337.8</ele>
      </trkpt>
      <trkpt lat="46.10208" lon="3.51498">
        <ele>343.5</ele>
        <time>2025-02-05T19:51:35Z</time>
      </trkpt>
      <trkpt lat="46.10213" lon="3.51526">
        <ele>366</ele>
        <time>2025-02-05T19:51:45Z</time>
      </trkpt>
      <trkpt lat="46.10227" lon="3.51587">
        <ele>376</ele>
        <time>2025-02-05T19:51:55Z</time>
      </trkpt>
      <trkpt lat="46.10241" lon="3.51618">
        <ele>380</ele>
        <time>2025-02-05T19:52:01Z</time>
      </trkpt>
      <trkpt lat="46.10263" lon="3.51643">
        <ele>385</ele>
        <time>2025-02-05T19:52:07Z</time>
      </trkpt>
      <trkpt lat="46.10263" lon="3.51607">
        <ele>380</ele>
        <time>2025-02-05T19:52:13Z</time>
      </trkpt>
      <trkpt lat="46.10283" lon="3.51539">
        <ele>378</ele>
        <time>2025-02-05T19:52:25Z</time>
      </trkpt>
      <trkpt lat="46.10303" lon="3.51506">
        <ele>381</ele>
        <time>2025-02-05T19:52:32Z</time>
      </trkpt>
      <trkpt lat="46.10352" lon="3.51397">
        <ele>386</ele>
        <time>2025-02-05T19:52:53Z</time>
      </trkpt>
      <trkpt lat="46.1036" lon="3.51387">
        <ele>387</ele>
        <time>2025-02-05T19:52:56Z</time>
      </trkpt>
      <trkpt lat="46.10363" lon="3.51391">
        <ele>388</ele>
        <time>2025-02-05T19:52:57Z</time>
      </trkpt>
      <trkpt lat="46.10353" lon="3.51456">
        <ele>393</ele>
        <time>2025-02-05T19:53:08Z</time>
      </trkpt>
      <trkpt lat="46.10347" lon="3.51491">
        <ele>394</ele>
        <time>2025-02-05T19:53:13Z</time>
      </trkpt>
      <trkpt lat="46.10348" lon="3.51609">
        <ele>401</ele>
        <time>2025-02-05T19:53:33Z</time>
      </trkpt>
      <trkpt lat="46.10387" lon="3.51711">
        <ele>412</ele>
        <time>2025-02-05T19:53:51Z</time>
      </trkpt>
      <trkpt lat="46.10433" lon="3.51819">
        <ele>417</ele>
        <time>2025-02-05T19:54:12Z</time>
      </trkpt>
      <trkpt lat="46.10461" lon="3.51856">
        <ele>421</ele>
        <time>2025-02-05T19:54:21Z</time>
      </trkpt>
      <trkpt lat="46.10524" lon="3.51938">
        <ele>425</ele>
        <time>2025-02-05T19:54:41Z</time>
      </trkpt>
      <trkpt lat="46.10457" lon="3.52278">
        <ele>440</ele>
        <time>2025-02-05T19:55:38Z</time>
      </trkpt>
      <trkpt lat="46.10434" lon="3.52398">
        <ele>446</ele>
        <time>2025-02-05T19:55:58Z</time>
      </trkpt>
      <trkpt lat="46.10421" lon="3.52474">
        <ele>445</ele>
        <time>2025-02-05T19:56:11Z</time>
      </trkpt>
      <trkpt lat="46.10406" lon="3.52582">
        <ele>442</ele>
        <time>2025-02-05T19:56:29Z</time>
      </trkpt>
      <trkpt lat="46.1039" lon="3.52708">
        <ele>441</ele>
        <time>2025-02-05T19:56:49Z</time>
      </trkpt>
      <trkpt lat="46.10387" lon="3.52728">
        <ele>440</ele>
        <time>2025-02-05T19:56:53Z</time>
      </trkpt>
      <trkpt lat="46.10378" lon="3.52726">
        <ele>440</ele>
        <time>2025-02-05T19:56:55Z</time>
      </trkpt>
      <trkpt lat="46.10371" lon="3.52729">
        <ele>440</ele>
        <time>2025-02-05T19:56:56Z</time>
      </trkpt>
      <trkpt lat="46.10342" lon="3.5279">
        <ele>440</ele>
        <time>2025-02-05T19:57:08Z</time>
      </trkpt>
      <trkpt lat="46.10338" lon="3.52807">
        <ele>441</ele>
        <time>2025-02-05T19:57:11Z</time>
      </trkpt>
      <trkpt lat="46.10337" lon="3.5282">
        <ele>441</ele>
        <time>2025-02-05T19:57:13Z</time>
      </trkpt>
      <trkpt lat="46.10336" lon="3.52824">
        <ele>441</ele>
        <time>2025-02-05T17:44:21Z</time>
      </trkpt>
      <trkpt lat="46.10336" lon="3.52828">
        <ele>441</ele>
        <time>2025-02-05T17:44:22Z</time>
      </trkpt>
      <trkpt lat="46.10314" lon="3.52834">
        <ele>442</ele>
        <time>2025-02-05T17:44:27Z</time>
      </trkpt>
      <trkpt lat="46.1021" lon="3.52991">
        <ele>454</ele>
        <time>2025-02-05T17:45:02Z</time>
      </trkpt>
      <trkpt lat="46.10126" lon="3.53101">
        <ele>463</ele>
        <time>2025-02-05T17:45:29Z</time>
      </trkpt>
      <trkpt lat="46.10078" lon="3.53155">
        <ele>469</ele>
        <time>2025-02-05T17:45:43Z</time>
      </trkpt>
      <trkpt lat="46.10067" lon="3.53172">
        <ele>470</ele>
        <time>2025-02-05T17:45:47Z</time>
      </trkpt>
      <trkpt lat="46.10054" lon="3.53213">
        <ele>473</ele>
        <time>2025-02-05T17:45:54Z</time>
      </trkpt>
      <trkpt lat="46.10041" lon="3.53225">
        <ele>474</ele>
        <time>2025-02-05T17:45:57Z</time>
      </trkpt>
      <trkpt lat="46.10038" lon="3.53228">
        <ele>475</ele>
        <time>2025-02-05T17:45:58Z</time>
      </trkpt>
      <trkpt lat="46.09993" lon="3.53246">
        <ele>479</ele>
        <time>2025-02-05T17:46:09Z</time>
      </trkpt>
      <trkpt lat="46.09966" lon="3.53286">
        <ele>479</ele>
        <time>2025-02-05T17:46:18Z</time>
      </trkpt>
      <trkpt lat="46.09906" lon="3.53431">
        <ele>476</ele>
        <time>2025-02-05T17:46:46Z</time>
      </trkpt>
      <trkpt lat="46.09896" lon="3.5344">
        <ele>475</ele>
        <time>2025-02-05T17:46:48Z</time>
      </trkpt>
      <trkpt lat="46.09828" lon="3.53436">
        <ele>467</ele>
        <time>2025-02-05T17:47:04Z</time>
      </trkpt>
      <trkpt lat="46.09805" lon="3.53444">
        <ele>463</ele>
        <time>2025-02-05T17:47:10Z</time>
      </trkpt>
      <trkpt lat="46.09783" lon="3.53456">
        <ele>459</ele>
        <time>2025-02-05T17:47:15Z</time>
      </trkpt>
      <trkpt lat="46.09756" lon="3.53477">
        <ele>455</ele>
        <time>2025-02-05T17:47:22Z</time>
      </trkpt>
      <trkpt lat="46.09742" lon="3.53492">
        <ele>453</ele>
        <time>2025-02-05T17:47:26Z</time>
      </trkpt>
      <trkpt lat="46.09725" lon="3.53521">
        <ele>450</ele>
        <time>2025-02-05T17:47:33Z</time>
      </trkpt>
      <trkpt lat="46.09695" lon="3.53565">
        <ele>447</ele>
        <time>2025-02-05T17:47:43Z</time>
      </trkpt>
      <trkpt lat="46.0967" lon="3.53586">
        <ele>444</ele>
        <time>2025-02-05T17:47:49Z</time>
      </trkpt>
      <trkpt lat="46.09628" lon="3.53614">
        <ele>441</ele>
        <time>2025-02-05T17:48:00Z</time>
      </trkpt>
      <trkpt lat="46.09611" lon="3.53603">
        <ele>439</ele>
        <time>2025-02-05T17:48:05Z</time>
      </trkpt>
      <trkpt lat="46.09599" lon="3.53606">
        <ele>439</ele>
        <time>2025-02-05T17:48:07Z</time>
      </trkpt>
      <trkpt lat="46.0958" lon="3.53621">
        <ele>437</ele>
        <time>2025-02-05T17:48:12Z</time>
      </trkpt>
      <trkpt lat="46.09575" lon="3.53625">
        <ele>436</ele>
        <time>2025-02-05T17:48:14Z</time>
      </trkpt>
      <trkpt lat="46.09557" lon="3.53646">
        <ele>435</ele>
        <time>2025-02-05T17:48:19Z</time>
      </trkpt>
      <trkpt lat="46.09529" lon="3.53714">
        <ele>430</ele>
        <time>2025-02-05T17:48:32Z</time>
      </trkpt>
      <trkpt lat="46.0952" lon="3.53733">
        <ele>429</ele>
        <time>2025-02-05T17:48:36Z</time>
      </trkpt>
      <trkpt lat="46.09482" lon="3.53788">
        <ele>423</ele>
        <time>2025-02-05T17:48:48Z</time>
      </trkpt>
      <trkpt lat="46.09446" lon="3.53812">
        <ele>420</ele>
        <time>2025-02-05T17:48:58Z</time>
      </trkpt>
      <trkpt lat="46.09414" lon="3.53818">
        <ele>417</ele>
        <time>2025-02-05T17:49:05Z</time>
      </trkpt>
      <trkpt lat="46.09373" lon="3.53818">
        <ele>411</ele>
        <time>2025-02-05T17:49:15Z</time>
      </trkpt>
      <trkpt lat="46.09336" lon="3.53812">
        <ele>406</ele>
        <time>2025-02-05T17:49:23Z</time>
      </trkpt>
      <trkpt lat="46.09193" lon="3.53768">
        <ele>396</ele>
        <time>2025-02-05T17:49:57Z</time>
      </trkpt>
      <trkpt lat="46.09159" lon="3.53758">
        <ele>397</ele>
        <time>2025-02-05T17:50:06Z</time>
      </trkpt>
      <trkpt lat="46.09123" lon="3.53757">
        <ele>397</ele>
        <time>2025-02-05T17:50:14Z</time>
      </trkpt>
      <trkpt lat="46.09087" lon="3.53777">
        <ele>394</ele>
        <time>2025-02-05T17:50:23Z</time>
      </trkpt>
      <trkpt lat="46.09022" lon="3.53807">
        <ele>388</ele>
        <time>2025-02-05T17:50:39Z</time>
      </trkpt>
      <trkpt lat="46.08989" lon="3.53813">
        <ele>385</ele>
        <time>2025-02-05T17:50:47Z</time>
      </trkpt>
      <trkpt lat="46.08965" lon="3.5381">
        <ele>382</ele>
        <time>2025-02-05T17:50:52Z</time>
      </trkpt>
      <trkpt lat="46.08924" lon="3.53793">
        <ele>377</ele>
        <time>2025-02-05T17:51:02Z</time>
      </trkpt>
      <trkpt lat="46.08895" lon="3.53777">
        <ele>371</ele>
        <time>2025-02-05T17:51:10Z</time>
      </trkpt>
      <trkpt lat="46.08867" lon="3.53767">
        <ele>365</ele>
        <time>2025-02-05T17:51:16Z</time>
      </trkpt>
      <trkpt lat="46.08803" lon="3.53766">
        <ele>350</ele>
        <time>2025-02-05T17:51:31Z</time>
      </trkpt>
      <trkpt lat="46.08768" lon="3.5376">
        <ele>343</ele>
        <time>2025-02-05T17:51:39Z</time>
      </trkpt>
      <trkpt lat="46.08759" lon="3.53758">
        <ele>341</ele>
        <time>2025-02-05T17:51:42Z</time>
      </trkpt>
      <trkpt lat="46.08746" lon="3.5378">
        <ele>341</ele>
        <time>2025-02-05T17:51:46Z</time>
      </trkpt>
      <trkpt lat="46.08741" lon="3.53789">
        <ele>341</ele>
        <time>2025-02-05T17:51:48Z</time>
      </trkpt>
      <trkpt lat="46.088" lon="3.53864">
        <ele>351</ele>
        <time>2025-02-05T17:52:07Z</time>
      </trkpt>
      <trkpt lat="46.08808" lon="3.5388">
        <ele>351</ele>
        <time>2025-02-05T17:52:10Z</time>
      </trkpt>
      <trkpt lat="46.08824" lon="3.53928">
        <ele>350</ele>
        <time>2025-02-05T17:52:18Z</time>
      </trkpt>
      <trkpt lat="46.08801" lon="3.53895">
        <ele>352</ele>
        <time>2025-02-05T17:52:26Z</time>
      </trkpt>
      <trkpt lat="46.08774" lon="3.53876">
        <ele>352</ele>
        <time>2025-02-05T17:52:33Z</time>
      </trkpt>
      <trkpt lat="46.0875" lon="3.53875">
        <ele>352</ele>
        <time>2025-02-05T17:52:39Z</time>
      </trkpt>
      <trkpt lat="46.08739" lon="3.5388">
        <ele>353</ele>
        <time>2025-02-05T17:52:41Z</time>
      </trkpt>
      <trkpt lat="46.08749" lon="3.53897">
        <ele>356</ele>
        <time>2025-02-05T17:52:45Z</time>
      </trkpt>
      <trkpt lat="46.08724" lon="3.53912">
        <ele>357</ele>
        <time>2025-02-05T17:52:51Z</time>
      </trkpt>
      <trkpt lat="46.08706" lon="3.53952">
        <ele>363</ele>
        <time>2025-02-05T17:52:59Z</time>
      </trkpt>
      <trkpt lat="46.08691" lon="3.53976">
        <ele>367</ele>
        <time>2025-02-05T17:53:04Z</time>
      </trkpt>
      <trkpt lat="46.08671" lon="3.53996">
        <ele>370</ele>
        <time>2025-02-05T17:53:10Z</time>
      </trkpt>
      <trkpt lat="46.08593" lon="3.54083">
        <ele>377</ele>
        <time>2025-02-05T17:53:33Z</time>
      </trkpt>
      <trkpt lat="46.08564" lon="3.54122">
        <ele>377</ele>
        <time>2025-02-05T17:53:42Z</time>
      </trkpt>
      <trkpt lat="46.08554" lon="3.54143">
        <ele>378</ele>
        <time>2025-02-05T17:53:46Z</time>
      </trkpt>
      <trkpt lat="46.08552" lon="3.54164">
        <ele>381</ele>
        <time>2025-02-05T17:53:50Z</time>
      </trkpt>
      <trkpt lat="46.08554" lon="3.54177">
        <ele>383</ele>
        <time>2025-02-05T17:53:52Z</time>
      </trkpt>
      <trkpt lat="46.08564" lon="3.54189">
        <ele>386</ele>
        <time>2025-02-05T17:53:55Z</time>
      </trkpt>
      <trkpt lat="46.08597" lon="3.54197">
        <ele>392</ele>
        <time>2025-02-05T17:54:03Z</time>
      </trkpt>
      <trkpt lat="46.08638" lon="3.54235">
        <ele>398</ele>
        <time>2025-02-05T17:54:14Z</time>
      </trkpt>
      <trkpt lat="46.08641" lon="3.54238">
        <ele>398</ele>
        <time>2025-02-05T17:54:15Z</time>
      </trkpt>
      <trkpt lat="46.08677" lon="3.54315">
        <ele>402</ele>
        <time>2025-02-05T17:54:30Z</time>
      </trkpt>
      <trkpt lat="46.08682" lon="3.5433">
        <ele>402</ele>
        <time>2025-02-05T17:54:33Z</time>
      </trkpt>
      <trkpt lat="46.08688" lon="3.5435">
        <ele>401</ele>
        <time>2025-02-05T17:54:36Z</time>
      </trkpt>
      <trkpt lat="46.08693" lon="3.54368">
        <ele>401</ele>
        <time>2025-02-05T17:54:39Z</time>
      </trkpt>
      <trkpt lat="46.08687" lon="3.54425">
        <ele>400</ele>
        <time>2025-02-05T17:54:49Z</time>
      </trkpt>
      <trkpt lat="46.08693" lon="3.54456">
        <ele>399</ele>
        <time>2025-02-05T17:54:54Z</time>
      </trkpt>
      <trkpt lat="46.08691" lon="3.54476">
        <ele>400</ele>
        <time>2025-02-05T17:54:57Z</time>
      </trkpt>
      <trkpt lat="46.08682" lon="3.54508">
        <ele>401</ele>
        <time>2025-02-05T17:55:03Z</time>
      </trkpt>
      <trkpt lat="46.08683" lon="3.54517">
        <ele>401</ele>
        <time>2025-02-05T17:55:04Z</time>
      </trkpt>
      <trkpt lat="46.08686" lon="3.5453">
        <ele>401</ele>
        <time>2025-02-05T17:55:06Z</time>
      </trkpt>
      <trkpt lat="46.08708" lon="3.54564">
        <ele>401</ele>
        <time>2025-02-05T17:55:14Z</time>
      </trkpt>
      <trkpt lat="46.08719" lon="3.5459">
        <ele>401</ele>
        <time>2025-02-05T17:55:19Z</time>
      </trkpt>
      <trkpt lat="46.08725" lon="3.5461">
        <ele>402</ele>
        <time>2025-02-05T17:55:22Z</time>
      </trkpt>
      <trkpt lat="46.08725" lon="3.54629">
        <ele>403</ele>
        <time>2025-02-05T17:55:25Z</time>
      </trkpt>
      <trkpt lat="46.08723" lon="3.5465">
        <ele>405</ele>
        <time>2025-02-05T17:55:29Z</time>
      </trkpt>
      <trkpt lat="46.08721" lon="3.54684">
        <ele>408</ele>
        <time>2025-02-05T17:55:34Z</time>
      </trkpt>
      <trkpt lat="46.08721" lon="3.54696">
        <ele>408</ele>
        <time>2025-02-05T17:55:36Z</time>
      </trkpt>
      <trkpt lat="46.08724" lon="3.54705">
        <ele>408</ele>
        <time>2025-02-05T17:55:38Z</time>
      </trkpt>
      <trkpt lat="46.08728" lon="3.54712">
        <ele>408</ele>
        <time>2025-02-05T17:55:39Z</time>
      </trkpt>
      <trkpt lat="46.08765" lon="3.54746">
        <ele>408</ele>
        <time>2025-02-05T17:55:50Z</time>
      </trkpt>
      <trkpt lat="46.08786" lon="3.54765">
        <ele>408</ele>
        <time>2025-02-05T17:55:56Z</time>
      </trkpt>
      <trkpt lat="46.08799" lon="3.54782">
        <ele>408</ele>
        <time>2025-02-05T17:56:00Z</time>
      </trkpt>
      <trkpt lat="46.08808" lon="3.548">
        <ele>408</ele>
        <time>2025-02-05T17:56:03Z</time>
      </trkpt>
      <trkpt lat="46.08841" lon="3.54909">
        <ele>409</ele>
        <time>2025-02-05T17:56:22Z</time>
      </trkpt>
      <trkpt lat="46.08829" lon="3.54926">
        <ele>410</ele>
        <time>2025-02-05T17:56:26Z</time>
      </trkpt>
      <trkpt lat="46.08793" lon="3.5496">
        <ele>412</ele>
        <time>2025-02-05T17:56:36Z</time>
      </trkpt>
      <trkpt lat="46.08768" lon="3.54991">
        <ele>413</ele>
        <time>2025-02-05T17:56:44Z</time>
      </trkpt>
      <trkpt lat="46.08734" lon="3.55034">
        <ele>413</ele>
        <time>2025-02-05T17:56:55Z</time>
      </trkpt>
      <trkpt lat="46.08686" lon="3.55081">
        <ele>410</ele>
        <time>2025-02-05T17:57:08Z</time>
      </trkpt>
      <trkpt lat="46.08664" lon="3.55105">
        <ele>409</ele>
        <time>2025-02-05T17:57:15Z</time>
      </trkpt>
      <trkpt lat="46.08653" lon="3.55122">
        <ele>409</ele>
        <time>2025-02-05T17:57:18Z</time>
      </trkpt>
      <trkpt lat="46.08583" lon="3.55241">
        <ele>406</ele>
        <time>2025-02-05T17:57:44Z</time>
      </trkpt>
      <trkpt lat="46.08574" lon="3.55251">
        <ele>406</ele>
        <time>2025-02-05T17:57:46Z</time>
      </trkpt>
      <trkpt lat="46.08572" lon="3.55256">
        <ele>406</ele>
        <time>2025-02-05T17:57:47Z</time>
      </trkpt>
      <trkpt lat="46.08542" lon="3.5535">
        <ele>402</ele>
        <time>2025-02-05T17:58:04Z</time>
      </trkpt>
      <trkpt lat="46.08531" lon="3.55379">
        <ele>401</ele>
        <time>2025-02-05T17:58:09Z</time>
      </trkpt>
      <trkpt lat="46.08498" lon="3.55438">
        <ele>397</ele>
        <time>2025-02-05T17:58:22Z</time>
      </trkpt>
      <trkpt lat="46.08457" lon="3.55495">
        <ele>390</ele>
        <time>2025-02-05T17:58:35Z</time>
      </trkpt>
      <trkpt lat="46.08441" lon="3.55512">
        <ele>388</ele>
        <time>2025-02-05T17:58:40Z</time>
      </trkpt>
      <trkpt lat="46.08366" lon="3.5558">
        <ele>382</ele>
        <time>2025-02-05T17:59:00Z</time>
      </trkpt>
      <trkpt lat="46.08327" lon="3.5564">
        <ele>377</ele>
        <time>2025-02-05T17:59:14Z</time>
      </trkpt>
      <trkpt lat="46.08326" lon="3.55645">
        <ele>376</ele>
        <time>2025-02-05T17:59:15Z</time>
      </trkpt>
      <trkpt lat="46.08313" lon="3.5573">
        <ele>373</ele>
        <time>2025-02-05T17:59:29Z</time>
      </trkpt>
      <trkpt lat="46.08273" lon="3.55815">
        <ele>373</ele>
        <time>2025-02-05T17:59:45Z</time>
      </trkpt>
      <trkpt lat="46.08271" lon="3.55828">
        <ele>373</ele>
        <time>2025-02-05T17:59:47Z</time>
      </trkpt>
      <trkpt lat="46.08273" lon="3.55837">
        <ele>373</ele>
        <time>2025-02-05T17:59:49Z</time>
      </trkpt>
      <trkpt lat="46.08274" lon="3.55845">
        <ele>373</ele>
        <time>2025-02-05T17:59:50Z</time>
      </trkpt>
      <trkpt lat="46.08283" lon="3.55856">
        <ele>373</ele>
        <time>2025-02-05T17:59:53Z</time>
      </trkpt>
      <trkpt lat="46.08343" lon="3.55884">
        <ele>376</ele>
        <time>2025-02-05T18:00:08Z</time>
      </trkpt>
      <trkpt lat="46.08364" lon="3.55895">
        <ele>377</ele>
        <time>2025-02-05T18:00:13Z</time>
      </trkpt>
      <trkpt lat="46.08422" lon="3.55937">
        <ele>379</ele>
        <time>2025-02-05T18:00:28Z</time>
      </trkpt>
      <trkpt lat="46.08442" lon="3.55953">
        <ele>381</ele>
        <time>2025-02-05T18:00:33Z</time>
      </trkpt>
      <trkpt lat="46.08495" lon="3.56012">
        <ele>385</ele>
        <time>2025-02-05T18:00:49Z</time>
      </trkpt>
      <trkpt lat="46.08522" lon="3.56031">
        <ele>387</ele>
        <time>2025-02-05T18:00:56Z</time>
      </trkpt>
      <trkpt lat="46.08528" lon="3.56041">
        <ele>387</ele>
        <time>2025-02-05T18:00:58Z</time>
      </trkpt>
      <trkpt lat="46.08548" lon="3.56098">
        <ele>388</ele>
        <time>2025-02-05T18:01:09Z</time>
      </trkpt>
      <trkpt lat="46.08563" lon="3.56117">
        <ele>388</ele>
        <time>2025-02-05T18:01:13Z</time>
      </trkpt>
      <trkpt lat="46.08596" lon="3.56142">
        <ele>390</ele>
        <time>2025-02-05T18:01:22Z</time>
      </trkpt>
      <trkpt lat="46.08605" lon="3.56156">
        <ele>390</ele>
        <time>2025-02-05T18:01:25Z</time>
      </trkpt>
      <trkpt lat="46.08633" lon="3.56224">
        <ele>392</ele>
        <time>2025-02-05T18:01:38Z</time>
      </trkpt>
      <trkpt lat="46.0865" lon="3.56261">
        <ele>393</ele>
        <time>2025-02-05T18:01:45Z</time>
      </trkpt>
      <trkpt lat="46.0866" lon="3.56282">
        <ele>393</ele>
        <time>2025-02-05T18:01:49Z</time>
      </trkpt>
      <trkpt lat="46.08674" lon="3.56303">
        <ele>393</ele>
        <time>2025-02-05T18:01:54Z</time>
      </trkpt>
      <trkpt lat="46.08675" lon="3.56313">
        <ele>393</ele>
        <time>2025-02-05T18:01:56Z</time>
      </trkpt>
      <trkpt lat="46.08609" lon="3.56366">
        <ele>389</ele>
        <time>2025-02-05T18:02:13Z</time>
      </trkpt>
      <trkpt lat="46.0858" lon="3.56383">
        <ele>388</ele>
        <time>2025-02-05T18:02:20Z</time>
      </trkpt>
      <trkpt lat="46.08531" lon="3.56419">
        <ele>384</ele>
        <time>2025-02-05T18:02:33Z</time>
      </trkpt>
      <trkpt lat="46.08528" lon="3.56423">
        <ele>384</ele>
        <time>2025-02-05T18:02:34Z</time>
      </trkpt>
      <trkpt lat="46.08524" lon="3.56436">
        <ele>383</ele>
        <time>2025-02-05T18:02:37Z</time>
      </trkpt>
      <trkpt lat="46.08525" lon="3.56453">
        <ele>382</ele>
        <time>2025-02-05T18:02:39Z</time>
      </trkpt>
      <trkpt lat="46.08549" lon="3.56498">
        <ele>380</ele>
        <time>2025-02-05T18:02:49Z</time>
      </trkpt>
      <trkpt lat="46.08591" lon="3.56568">
        <ele>379</ele>
        <time>2025-02-05T18:03:04Z</time>
      </trkpt>
      <trkpt lat="46.086" lon="3.56598">
        <ele>379</ele>
        <time>2025-02-05T18:03:09Z</time>
      </trkpt>
      <trkpt lat="46.08608" lon="3.56654">
        <ele>381</ele>
        <time>2025-02-05T18:03:18Z</time>
      </trkpt>
      <trkpt lat="46.0861" lon="3.56769">
        <ele>382</ele>
        <time>2025-02-05T18:03:37Z</time>
      </trkpt>
      <trkpt lat="46.08612" lon="3.56791">
        <ele>382</ele>
        <time>2025-02-05T18:03:40Z</time>
      </trkpt>
      <trkpt lat="46.08576" lon="3.56763">
        <ele>382</ele>
        <time>2025-02-05T18:03:50Z</time>
      </trkpt>
      <trkpt lat="46.08548" lon="3.56733">
        <ele>381</ele>
        <time>2025-02-05T18:03:58Z</time>
      </trkpt>
      <trkpt lat="46.08534" lon="3.56726">
        <ele>380</ele>
        <time>2025-02-05T18:04:01Z</time>
      </trkpt>
      <trkpt lat="46.08512" lon="3.56723">
        <ele>380</ele>
        <time>2025-02-05T18:04:07Z</time>
      </trkpt>
      <trkpt lat="46.08496" lon="3.56724">
        <ele>380</ele>
        <time>2025-02-05T18:04:10Z</time>
      </trkpt>
      <trkpt lat="46.08458" lon="3.56736">
        <ele>382</ele>
        <time>2025-02-05T18:04:19Z</time>
      </trkpt>
      <trkpt lat="46.08364" lon="3.56793">
        <ele>386</ele>
        <time>2025-02-05T18:04:43Z</time>
      </trkpt>
      <trkpt lat="46.08341" lon="3.56798">
        <ele>387</ele>
        <time>2025-02-05T18:04:49Z</time>
      </trkpt>
      <trkpt lat="46.08332" lon="3.56798">
        <ele>388</ele>
        <time>2025-02-05T18:04:51Z</time>
      </trkpt>
      <trkpt lat="46.08322" lon="3.56793">
        <ele>388</ele>
        <time>2025-02-05T18:04:53Z</time>
      </trkpt>
      <trkpt lat="46.08215" lon="3.56702">
        <ele>389</ele>
        <time>2025-02-05T18:05:22Z</time>
      </trkpt>
      <trkpt lat="46.08199" lon="3.56683">
        <ele>388</ele>
        <time>2025-02-05T18:05:27Z</time>
      </trkpt>
      <trkpt lat="46.08194" lon="3.56674">
        <ele>387</ele>
        <time>2025-02-05T18:05:29Z</time>
      </trkpt>
      <trkpt lat="46.08168" lon="3.56739">
        <ele>391</ele>
        <time>2025-02-05T18:05:41Z</time>
      </trkpt>
      <trkpt lat="46.08164" lon="3.56753">
        <ele>392</ele>
        <time>2025-02-05T18:05:44Z</time>
      </trkpt>
      <trkpt lat="46.08163" lon="3.56766">
        <ele>393</ele>
        <time>2025-02-05T18:05:46Z</time>
      </trkpt>
      <trkpt lat="46.08166" lon="3.56864">
        <ele>398</ele>
        <time>2025-02-05T18:06:02Z</time>
      </trkpt>
      <trkpt lat="46.08168" lon="3.56962">
        <ele>401</ele>
        <time>2025-02-05T18:06:18Z</time>
      </trkpt>
      <trkpt lat="46.08172" lon="3.57057">
        <ele>405</ele>
        <time>2025-02-05T18:06:33Z</time>
      </trkpt>
      <trkpt lat="46.08174" lon="3.57068">
        <ele>406</ele>
        <time>2025-02-05T18:06:35Z</time>
      </trkpt>
      <trkpt lat="46.08147" lon="3.57114">
        <ele>409</ele>
        <time>2025-02-05T18:06:45Z</time>
      </trkpt>
      <trkpt lat="46.0813" lon="3.57141">
        <ele>410</ele>
        <time>2025-02-05T18:06:50Z</time>
      </trkpt>
      <trkpt lat="46.08103" lon="3.57197">
        <ele>414</ele>
        <time>2025-02-05T18:07:01Z</time>
      </trkpt>
      <trkpt lat="46.0806" lon="3.57254">
        <ele>421</ele>
        <time>2025-02-05T18:07:15Z</time>
      </trkpt>
      <trkpt lat="46.08037" lon="3.57292">
        <ele>427</ele>
        <time>2025-02-05T18:07:23Z</time>
      </trkpt>
      <trkpt lat="46.08029" lon="3.57301">
        <ele>428</ele>
        <time>2025-02-05T18:07:26Z</time>
      </trkpt>
      <trkpt lat="46.08013" lon="3.57315">
        <ele>431</ele>
        <time>2025-02-05T18:07:30Z</time>
      </trkpt>
      <trkpt lat="46.08004" lon="3.57318">
        <ele>432</ele>
        <time>2025-02-05T18:07:32Z</time>
      </trkpt>
      <trkpt lat="46.07989" lon="3.57316">
        <ele>433</ele>
        <time>2025-02-05T18:07:36Z</time>
      </trkpt>
      <trkpt lat="46.07953" lon="3.57298">
        <ele>433</ele>
        <time>2025-02-05T18:07:45Z</time>
      </trkpt>
      <trkpt lat="46.07938" lon="3.57298">
        <ele>434</ele>
        <time>2025-02-05T18:07:48Z</time>
      </trkpt>
      <trkpt lat="46.07932" lon="3.573">
        <ele>435</ele>
        <time>2025-02-05T18:07:50Z</time>
      </trkpt>
      <trkpt lat="46.07927" lon="3.57305">
        <ele>436</ele>
        <time>2025-02-05T18:07:51Z</time>
      </trkpt>
      <trkpt lat="46.07913" lon="3.57335">
        <ele>440</ele>
        <time>2025-02-05T18:07:57Z</time>
      </trkpt>
      <trkpt lat="46.07903" lon="3.57347">
        <ele>442</ele>
        <time>2025-02-05T18:08:00Z</time>
      </trkpt>
      <trkpt lat="46.07921" lon="3.57379">
        <ele>446</ele>
        <time>2025-02-05T18:08:07Z</time>
      </trkpt>
      <trkpt lat="46.07931" lon="3.57403">
        <ele>449</ele>
        <time>2025-02-05T18:08:11Z</time>
      </trkpt>
      <trkpt lat="46.07948" lon="3.57431">
        <ele>452</ele>
        <time>2025-02-05T18:08:17Z</time>
      </trkpt>
      <trkpt lat="46.07957" lon="3.57438">
        <ele>452</ele>
        <time>2025-02-05T18:08:19Z</time>
      </trkpt>
      <trkpt lat="46.07989" lon="3.57447">
        <ele>451</ele>
        <time>2025-02-05T18:08:27Z</time>
      </trkpt>
      <trkpt lat="46.08008" lon="3.57453">
        <ele>451</ele>
        <time>2025-02-05T18:08:32Z</time>
      </trkpt>
      <trkpt lat="46.0806" lon="3.57483">
        <ele>454</ele>
        <time>2025-02-05T18:08:45Z</time>
      </trkpt>
      <trkpt lat="46.08098" lon="3.57497">
        <ele>456</ele>
        <time>2025-02-05T18:08:54Z</time>
      </trkpt>
      <trkpt lat="46.08121" lon="3.57498">
        <ele>456</ele>
        <time>2025-02-05T18:08:59Z</time>
      </trkpt>
      <trkpt lat="46.08136" lon="3.57493">
        <ele>456</ele>
        <time>2025-02-05T18:09:03Z</time>
      </trkpt>
      <trkpt lat="46.08157" lon="3.57494">
        <ele>456</ele>
        <time>2025-02-05T18:09:08Z</time>
      </trkpt>
      <trkpt lat="46.08171" lon="3.57504">
        <ele>457</ele>
        <time>2025-02-05T18:09:11Z</time>
      </trkpt>
      <trkpt lat="46.08178" lon="3.57514">
        <ele>458</ele>
        <time>2025-02-05T18:09:14Z</time>
      </trkpt>
      <trkpt lat="46.08182" lon="3.57524">
        <ele>458</ele>
        <time>2025-02-05T18:09:16Z</time>
      </trkpt>
      <trkpt lat="46.08183" lon="3.57532">
        <ele>459</ele>
        <time>2025-02-05T18:09:17Z</time>
      </trkpt>
      <trkpt lat="46.08183" lon="3.57551">
        <ele>461</ele>
        <time>2025-02-05T18:09:20Z</time>
      </trkpt>
      <trkpt lat="46.0818" lon="3.57573">
        <ele>464</ele>
        <time>2025-02-05T18:09:24Z</time>
      </trkpt>
      <trkpt lat="46.08175" lon="3.57592">
        <ele>466</ele>
        <time>2025-02-05T18:09:27Z</time>
      </trkpt>
      <trkpt lat="46.08139" lon="3.57693">
        <ele>474</ele>
        <time>2025-02-05T18:09:45Z</time>
      </trkpt>
      <trkpt lat="46.08117" lon="3.57734">
        <ele>478</ele>
        <time>2025-02-05T18:09:54Z</time>
      </trkpt>
      <trkpt lat="46.08104" lon="3.57769">
        <ele>481</ele>
        <time>2025-02-05T18:10:00Z</time>
      </trkpt>
      <trkpt lat="46.08095" lon="3.57788">
        <ele>483</ele>
        <time>2025-02-05T18:10:04Z</time>
      </trkpt>
      <trkpt lat="46.0807" lon="3.5785">
        <ele>484</ele>
        <time>2025-02-05T18:10:15Z</time>
      </trkpt>
      <trkpt lat="46.08047" lon="3.57899">
        <ele>482</ele>
        <time>2025-02-05T18:10:25Z</time>
      </trkpt>
      <trkpt lat="46.08042" lon="3.57913">
        <ele>482</ele>
        <time>2025-02-05T18:10:28Z</time>
      </trkpt>
      <trkpt lat="46.08038" lon="3.57932">
        <ele>481</ele>
        <time>2025-02-05T18:10:31Z</time>
      </trkpt>
      <trkpt lat="46.08033" lon="3.5795">
        <ele>480</ele>
        <time>2025-02-05T18:10:34Z</time>
      </trkpt>
      <trkpt lat="46.08019" lon="3.57977">
        <ele>481</ele>
        <time>2025-02-05T18:10:39Z</time>
      </trkpt>
      <trkpt lat="46.08001" lon="3.58006">
        <ele>482</ele>
        <time>2025-02-05T18:10:46Z</time>
      </trkpt>
      <trkpt lat="46.07993" lon="3.58022">
        <ele>481</ele>
        <time>2025-02-05T18:10:49Z</time>
      </trkpt>
      <trkpt lat="46.07983" lon="3.58047">
        <ele>480</ele>
        <time>2025-02-05T18:10:54Z</time>
      </trkpt>
      <trkpt lat="46.07978" lon="3.58064">
        <ele>479</ele>
        <time>2025-02-05T18:10:57Z</time>
      </trkpt>
      <trkpt lat="46.07974" lon="3.58082">
        <ele>478</ele>
        <time>2025-02-05T18:11:00Z</time>
      </trkpt>
      <trkpt lat="46.07967" lon="3.581">
        <ele>478</ele>
        <time>2025-02-05T18:11:03Z</time>
      </trkpt>
      <trkpt lat="46.07899" lon="3.58212">
        <ele>477</ele>
        <time>2025-02-05T18:11:27Z</time>
      </trkpt>
      <trkpt lat="46.07894" lon="3.58219">
        <ele>476</ele>
        <time>2025-02-05T18:11:29Z</time>
      </trkpt>
      <trkpt lat="46.07854" lon="3.58261">
        <ele>472</ele>
        <time>2025-02-05T18:11:40Z</time>
      </trkpt>
      <trkpt lat="46.07842" lon="3.58269">
        <ele>471</ele>
        <time>2025-02-05T18:11:43Z</time>
      </trkpt>
      <trkpt lat="46.07833" lon="3.58272">
        <ele>471</ele>
        <time>2025-02-05T18:11:46Z</time>
      </trkpt>
      <trkpt lat="46.07825" lon="3.5827">
        <ele>470</ele>
        <time>2025-02-05T18:11:47Z</time>
      </trkpt>
      <trkpt lat="46.07818" lon="3.58265">
        <ele>470</ele>
        <time>2025-02-05T18:11:49Z</time>
      </trkpt>
      <trkpt lat="46.0781" lon="3.58254">
        <ele>470</ele>
        <time>2025-02-05T18:11:52Z</time>
      </trkpt>
      <trkpt lat="46.07799" lon="3.58225">
        <ele>470</ele>
        <time>2025-02-05T18:11:57Z</time>
      </trkpt>
      <trkpt lat="46.07792" lon="3.58212">
        <ele>469</ele>
        <time>2025-02-05T18:12:00Z</time>
      </trkpt>
      <trkpt lat="46.07785" lon="3.58206">
        <ele>469</ele>
        <time>2025-02-05T18:12:02Z</time>
      </trkpt>
      <trkpt lat="46.07775" lon="3.5821">
        <ele>468</ele>
        <time>2025-02-05T18:12:04Z</time>
      </trkpt>
      <trkpt lat="46.07737" lon="3.58245">
        <ele>467</ele>
        <time>2025-02-05T18:12:15Z</time>
      </trkpt>
      <trkpt lat="46.07688" lon="3.58305">
        <ele>472</ele>
        <time>2025-02-05T18:12:30Z</time>
      </trkpt>
      <trkpt lat="46.07662" lon="3.583">
        <ele>473</ele>
        <time>2025-02-05T18:12:36Z</time>
      </trkpt>
      <trkpt lat="46.07645" lon="3.58304">
        <ele>476</ele>
        <time>2025-02-05T18:12:40Z</time>
      </trkpt>
      <trkpt lat="46.07633" lon="3.58301">
        <ele>477</ele>
        <time>2025-02-05T18:12:43Z</time>
      </trkpt>
      <trkpt lat="46.07631" lon="3.58311">
        <ele>477</ele>
        <time>2025-02-05T18:12:44Z</time>
      </trkpt>
      <trkpt lat="46.0763" lon="3.58359">
        <ele>480.1</ele>
        <time>2025-02-05T18:12:52Z</time>
      </trkpt>
      <trkpt lat="46.07641" lon="3.58423">
        <ele>484</ele>
        <time>2025-02-05T18:13:03Z</time>
      </trkpt>
      <trkpt lat="46.0764" lon="3.58456">
        <ele>486</ele>
        <time>2025-02-05T18:13:08Z</time>
      </trkpt>
      <trkpt lat="46.07634" lon="3.58478">
        <ele>488</ele>
        <time>2025-02-05T18:13:12Z</time>
      </trkpt>
      <trkpt lat="46.07607" lon="3.58502">
        <ele>492</ele>
        <time>2025-02-05T18:13:19Z</time>
      </trkpt>
      <trkpt lat="46.0758" lon="3.58532">
        <ele>494</ele>
        <time>2025-02-05T18:13:27Z</time>
      </trkpt>
      <trkpt lat="46.07549" lon="3.58556">
        <ele>499</ele>
        <time>2025-02-05T18:13:36Z</time>
      </trkpt>
      <trkpt lat="46.07536" lon="3.58564">
        <ele>501</ele>
        <time>2025-02-05T18:13:39Z</time>
      </trkpt>
      <trkpt lat="46.07522" lon="3.58572">
        <ele>504</ele>
        <time>2025-02-05T18:13:42Z</time>
      </trkpt>
      <trkpt lat="46.07516" lon="3.58576">
        <ele>505</ele>
        <time>2025-02-05T18:13:44Z</time>
      </trkpt>
      <trkpt lat="46.07445" lon="3.58586">
        <ele>514</ele>
        <time>2025-02-05T18:14:01Z</time>
      </trkpt>
      <trkpt lat="46.07396" lon="3.58598">
        <ele>516</ele>
        <time>2025-02-05T18:14:12Z</time>
      </trkpt>
      <trkpt lat="46.07372" lon="3.58592">
        <ele>516</ele>
        <time>2025-02-05T18:14:18Z</time>
      </trkpt>
      <trkpt lat="46.07354" lon="3.58595">
        <ele>516</ele>
        <time>2025-02-05T18:14:22Z</time>
      </trkpt>
      <trkpt lat="46.07338" lon="3.58602">
        <ele>516</ele>
        <time>2025-02-05T18:14:26Z</time>
      </trkpt>
      <trkpt lat="46.07319" lon="3.58596">
        <ele>516</ele>
        <time>2025-02-05T18:14:31Z</time>
      </trkpt>
      <trkpt lat="46.07315" lon="3.58594">
        <ele>517</ele>
        <time>2025-02-05T18:14:32Z</time>
      </trkpt>
      <trkpt lat="46.07276" lon="3.58566">
        <ele>517</ele>
        <time>2025-02-05T18:14:42Z</time>
      </trkpt>
      <trkpt lat="46.07216" lon="3.58519">
        <ele>516</ele>
        <time>2025-02-05T18:14:58Z</time>
      </trkpt>
      <trkpt lat="46.07203" lon="3.58518">
        <ele>516</ele>
        <time>2025-02-05T18:15:01Z</time>
      </trkpt>
      <trkpt lat="46.07179" lon="3.58489">
        <ele>516</ele>
        <time>2025-02-05T18:15:08Z</time>
      </trkpt>
      <trkpt lat="46.07128" lon="3.58473">
        <ele>512</ele>
        <time>2025-02-05T18:15:20Z</time>
      </trkpt>
      <trkpt lat="46.07092" lon="3.58471">
        <ele>508</ele>
        <time>2025-02-05T18:15:29Z</time>
      </trkpt>
      <trkpt lat="46.07055" lon="3.58454">
        <ele>503</ele>
        <time>2025-02-05T18:15:38Z</time>
      </trkpt>
      <trkpt lat="46.0701" lon="3.58423">
        <ele>495</ele>
        <time>2025-02-05T18:15:49Z</time>
      </trkpt>
      <trkpt lat="46.0699" lon="3.58421">
        <ele>494</ele>
        <time>2025-02-05T18:15:54Z</time>
      </trkpt>
      <trkpt lat="46.06978" lon="3.58439">
        <ele>495</ele>
        <time>2025-02-05T18:15:58Z</time>
      </trkpt>
      <trkpt lat="46.06964" lon="3.58432">
        <ele>495</ele>
        <time>2025-02-05T18:16:02Z</time>
      </trkpt>
      <trkpt lat="46.06902" lon="3.5841">
        <ele>493</ele>
        <time>2025-02-05T18:16:16Z</time>
      </trkpt>
      <trkpt lat="46.0684" lon="3.58388">
        <ele>492</ele>
        <time>2025-02-05T18:16:31Z</time>
      </trkpt>
      <trkpt lat="46.06811" lon="3.58388">
        <ele>493</ele>
        <time>2025-02-05T18:16:38Z</time>
      </trkpt>
      <trkpt lat="46.06706" lon="3.58419">
        <ele>499</ele>
        <time>2025-02-05T18:17:03Z</time>
      </trkpt>
      <trkpt lat="46.06679" lon="3.58428">
        <ele>502</ele>
        <time>2025-02-05T18:17:10Z</time>
      </trkpt>
      <trkpt lat="46.06654" lon="3.58412">
        <ele>501</ele>
        <time>2025-02-05T18:17:16Z</time>
      </trkpt>
      <trkpt lat="46.06617" lon="3.5839">
        <ele>505.3</ele>
        <time>2025-02-05T18:17:25Z</time>
      </trkpt>
      <trkpt lat="46.06591" lon="3.58377">
        <ele>504</ele>
        <time>2025-02-05T18:17:32Z</time>
      </trkpt>
      <trkpt lat="46.06568" lon="3.58379">
        <ele>506</ele>
        <time>2025-02-05T18:17:37Z</time>
      </trkpt>
      <trkpt lat="46.06542" lon="3.58403">
        <ele>509</ele>
        <time>2025-02-05T18:17:44Z</time>
      </trkpt>
      <trkpt lat="46.06508" lon="3.58395">
        <ele>511</ele>
        <time>2025-02-05T18:17:52Z</time>
      </trkpt>
      <trkpt lat="46.0649" lon="3.5838">
        <ele>511</ele>
        <time>2025-02-05T18:17:57Z</time>
      </trkpt>
      <trkpt lat="46.06473" lon="3.58361">
        <ele>510</ele>
        <time>2025-02-05T18:18:02Z</time>
      </trkpt>
      <trkpt lat="46.06449" lon="3.58335">
        <ele>510</ele>
        <time>2025-02-05T18:18:09Z</time>
      </trkpt>
      <trkpt lat="46.06441" lon="3.58327">
        <ele>511</ele>
        <time>2025-02-05T18:18:12Z</time>
      </trkpt>
      <trkpt lat="46.06438" lon="3.58323">
        <ele>511</ele>
        <time>2025-02-05T18:18:13Z</time>
      </trkpt>
      <trkpt lat="46.06402" lon="3.58273">
        <ele>513</ele>
        <time>2025-02-05T18:18:24Z</time>
      </trkpt>
      <trkpt lat="46.06398" lon="3.58251">
        <ele>514</ele>
        <time>2025-02-05T18:18:28Z</time>
      </trkpt>
      <trkpt lat="46.06401" lon="3.58223">
        <ele>517</ele>
        <time>2025-02-05T18:18:33Z</time>
      </trkpt>
      <trkpt lat="46.06408" lon="3.58196">
        <ele>519</ele>
        <time>2025-02-05T18:18:37Z</time>
      </trkpt>
      <trkpt lat="46.06413" lon="3.58186">
        <ele>519</ele>
        <time>2025-02-05T18:18:39Z</time>
      </trkpt>
      <trkpt lat="46.06416" lon="3.58183">
        <ele>519</ele>
        <time>2025-02-05T18:18:40Z</time>
      </trkpt>
      <trkpt lat="46.06427" lon="3.58151">
        <ele>519</ele>
        <time>2025-02-05T18:18:46Z</time>
      </trkpt>
      <trkpt lat="46.06424" lon="3.5814">
        <ele>520</ele>
        <time>2025-02-05T18:18:48Z</time>
      </trkpt>
      <trkpt lat="46.06416" lon="3.58125">
        <ele>521</ele>
        <time>2025-02-05T18:18:51Z</time>
      </trkpt>
      <trkpt lat="46.06401" lon="3.58102">
        <ele>523</ele>
        <time>2025-02-05T18:18:56Z</time>
      </trkpt>
      <trkpt lat="46.06397" lon="3.58096">
        <ele>524</ele>
        <time>2025-02-05T18:18:57Z</time>
      </trkpt>
      <trkpt lat="46.06387" lon="3.58072">
        <ele>526</ele>
        <time>2025-02-05T18:19:02Z</time>
      </trkpt>
      <trkpt lat="46.0639" lon="3.58033">
        <ele>526</ele>
        <time>2025-02-05T18:19:08Z</time>
      </trkpt>
      <trkpt lat="46.06395" lon="3.58023">
        <ele>526</ele>
        <time>2025-02-05T18:19:10Z</time>
      </trkpt>
      <trkpt lat="46.06434" lon="3.57988">
        <ele>521</ele>
        <time>2025-02-05T18:19:21Z</time>
      </trkpt>
      <trkpt lat="46.06448" lon="3.57958">
        <ele>521</ele>
        <time>2025-02-05T18:19:27Z</time>
      </trkpt>
      <trkpt lat="46.06452" lon="3.57947">
        <ele>520</ele>
        <time>2025-02-05T18:19:29Z</time>
      </trkpt>
      <trkpt lat="46.0646" lon="3.57921">
        <ele>520</ele>
        <time>2025-02-05T18:19:33Z</time>
      </trkpt>
      <trkpt lat="46.06482" lon="3.57884">
        <ele>517</ele>
        <time>2025-02-05T18:19:41Z</time>
      </trkpt>
      <trkpt lat="46.06494" lon="3.57851">
        <ele>516</ele>
        <time>2025-02-05T18:19:47Z</time>
      </trkpt>
      <trkpt lat="46.06501" lon="3.5782">
        <ele>514</ele>
        <time>2025-02-05T18:19:53Z</time>
      </trkpt>
      <trkpt lat="46.06505" lon="3.5774">
        <ele>510</ele>
        <time>2025-02-05T18:20:06Z</time>
      </trkpt>
      <trkpt lat="46.06493" lon="3.57682">
        <ele>507</ele>
        <time>2025-02-05T18:20:15Z</time>
      </trkpt>
      <trkpt lat="46.06492" lon="3.57613">
        <ele>501</ele>
        <time>2025-02-05T18:20:27Z</time>
      </trkpt>
      <trkpt lat="46.06492" lon="3.57546">
        <ele>496</ele>
        <time>2025-02-05T18:20:37Z</time>
      </trkpt>
      <trkpt lat="46.06481" lon="3.57515">
        <ele>496</ele>
        <time>2025-02-05T18:20:43Z</time>
      </trkpt>
      <trkpt lat="46.06458" lon="3.57477">
        <ele>494</ele>
        <time>2025-02-05T18:20:51Z</time>
      </trkpt>
      <trkpt lat="46.06446" lon="3.57443">
        <ele>489</ele>
        <time>2025-02-05T18:20:57Z</time>
      </trkpt>
      <trkpt lat="46.06429" lon="3.57402">
        <ele>483</ele>
        <time>2025-02-05T18:21:05Z</time>
      </trkpt>
      <trkpt lat="46.06409" lon="3.57379">
        <ele>480</ele>
        <time>2025-02-05T18:21:11Z</time>
      </trkpt>
      <trkpt lat="46.06396" lon="3.57371">
        <ele>479</ele>
        <time>2025-02-05T18:21:14Z</time>
      </trkpt>
      <trkpt lat="46.06341" lon="3.57352">
        <ele>477</ele>
        <time>2025-02-05T18:21:28Z</time>
      </trkpt>
      <trkpt lat="46.06334" lon="3.57348">
        <ele>476</ele>
        <time>2025-02-05T18:21:29Z</time>
      </trkpt>
      <trkpt lat="46.06314" lon="3.57332">
        <ele>473</ele>
        <time>2025-02-05T18:21:35Z</time>
      </trkpt>
      <trkpt lat="46.06301" lon="3.57337">
        <ele>474</ele>
        <time>2025-02-05T18:21:38Z</time>
      </trkpt>
      <trkpt lat="46.06292" lon="3.57344">
        <ele>475</ele>
        <time>2025-02-05T18:21:40Z</time>
      </trkpt>
      <trkpt lat="46.06254" lon="3.57334">
        <ele>473</ele>
        <time>2025-02-05T18:21:49Z</time>
      </trkpt>
      <trkpt lat="46.06233" lon="3.57325">
        <ele>471</ele>
        <time>2025-02-05T18:21:54Z</time>
      </trkpt>
      <trkpt lat="46.06183" lon="3.57284">
        <ele>463</ele>
        <time>2025-02-05T18:22:08Z</time>
      </trkpt>
      <trkpt lat="46.06162" lon="3.57271">
        <ele>459</ele>
        <time>2025-02-05T18:22:13Z</time>
      </trkpt>
      <trkpt lat="46.06138" lon="3.57252">
        <ele>453</ele>
        <time>2025-02-05T18:22:20Z</time>
      </trkpt>
      <trkpt lat="46.06132" lon="3.57252">
        <ele>452</ele>
        <time>2025-02-05T18:22:21Z</time>
      </trkpt>
      <trkpt lat="46.06129" lon="3.57245">
        <ele>451</ele>
        <time>2025-02-05T18:22:22Z</time>
      </trkpt>
      <trkpt lat="46.06105" lon="3.57226">
        <ele>445</ele>
        <time>2025-02-05T18:22:29Z</time>
      </trkpt>
      <trkpt lat="46.06086" lon="3.57228">
        <ele>442</ele>
        <time>2025-02-05T18:22:33Z</time>
      </trkpt>
      <trkpt lat="46.06075" lon="3.57225">
        <ele>439</ele>
        <time>2025-02-05T18:22:36Z</time>
      </trkpt>
      <trkpt lat="46.06063" lon="3.57219">
        <ele>434</ele>
        <time>2025-02-05T18:22:39Z</time>
      </trkpt>
      <trkpt lat="46.06009" lon="3.57183">
        <ele>416</ele>
        <time>2025-02-05T18:22:53Z</time>
      </trkpt>
      <trkpt lat="46.06004" lon="3.57176">
        <ele>415</ele>
        <time>2025-02-05T18:22:54Z</time>
      </trkpt>
      <trkpt lat="46.05991" lon="3.57173">
        <ele>411</ele>
        <time>2025-02-05T18:22:57Z</time>
      </trkpt>
      <trkpt lat="46.05977" lon="3.57159">
        <ele>405</ele>
        <time>2025-02-05T18:23:01Z</time>
      </trkpt>
      <trkpt lat="46.05963" lon="3.57142">
        <ele>400</ele>
        <time>2025-02-05T18:23:06Z</time>
      </trkpt>
      <trkpt lat="46.05947" lon="3.57122">
        <ele>394</ele>
        <time>2025-02-05T18:23:11Z</time>
      </trkpt>
      <trkpt lat="46.05919" lon="3.57106">
        <ele>386</ele>
        <time>2025-02-05T18:23:18Z</time>
      </trkpt>
      <trkpt lat="46.05913" lon="3.57092">
        <ele>385</ele>
        <time>2025-02-05T18:23:20Z</time>
      </trkpt>
      <trkpt lat="46.05914" lon="3.57077">
        <ele>385</ele>
        <time>2025-02-05T18:23:23Z</time>
      </trkpt>
      <trkpt lat="46.05918" lon="3.57062">
        <ele>384</ele>
        <time>2025-02-05T18:23:25Z</time>
      </trkpt>
      <trkpt lat="46.0592" lon="3.57059">
        <ele>384</ele>
        <time>2025-02-05T18:23:26Z</time>
      </trkpt>
      <trkpt lat="46.0592" lon="3.57049">
        <ele>383</ele>
        <time>2025-02-05T18:23:28Z</time>
      </trkpt>
      <trkpt lat="46.05904" lon="3.57016">
        <ele>376</ele>
        <time>2025-02-05T18:23:34Z</time>
      </trkpt>
      <trkpt lat="46.05894" lon="3.57015">
        <ele>374</ele>
        <time>2025-02-05T18:23:36Z</time>
      </trkpt>
      <trkpt lat="46.05884" lon="3.57021">
        <ele>373</ele>
        <time>2025-02-05T18:23:39Z</time>
      </trkpt>
      <trkpt lat="46.0588" lon="3.57029">
        <ele>373</ele>
        <time>2025-02-05T18:23:41Z</time>
      </trkpt>
      <trkpt lat="46.05869" lon="3.57038">
        <ele>372</ele>
        <time>2025-02-05T18:23:44Z</time>
      </trkpt>
      <trkpt lat="46.05863" lon="3.5704">
        <ele>372</ele>
        <time>2025-02-05T18:23:45Z</time>
      </trkpt>
      <trkpt lat="46.05857" lon="3.57036">
        <ele>370</ele>
        <time>2025-02-05T18:23:47Z</time>
      </trkpt>
      <trkpt lat="46.05861" lon="3.57026">
        <ele>370</ele>
        <time>2025-02-05T18:23:48Z</time>
      </trkpt>
      <trkpt lat="46.05888" lon="3.56971">
        <ele>369</ele>
        <time>2025-02-05T18:23:59Z</time>
      </trkpt>
      <trkpt lat="46.05908" lon="3.5694">
        <ele>368</ele>
        <time>2025-02-05T18:24:06Z</time>
      </trkpt>
      <trkpt lat="46.05928" lon="3.56921">
        <ele>367</ele>
        <time>2025-02-05T18:24:12Z</time>
      </trkpt>
      <trkpt lat="46.05922" lon="3.56874">
        <ele>364</ele>
        <time>2025-02-05T18:24:20Z</time>
      </trkpt>
      <trkpt lat="46.0592" lon="3.56849">
        <ele>364</ele>
        <time>2025-02-05T18:24:24Z</time>
      </trkpt>
      <trkpt lat="46.05912" lon="3.56817">
        <ele>363</ele>
        <time>2025-02-05T18:24:29Z</time>
      </trkpt>
      <trkpt lat="46.0591" lon="3.56812">
        <ele>363</ele>
        <time>2025-02-05T18:24:30Z</time>
      </trkpt>
      <trkpt lat="46.05908" lon="3.56806">
        <ele>363</ele>
        <time>2025-02-05T18:24:31Z</time>
      </trkpt>
      <trkpt lat="46.05905" lon="3.56795">
        <ele>363</ele>
        <time>2025-02-05T18:24:33Z</time>
      </trkpt>
      <trkpt lat="46.05901" lon="3.56781">
        <ele>363</ele>
        <time>2025-02-05T18:24:36Z</time>
      </trkpt>
      <trkpt lat="46.05896" lon="3.56747">
        <ele>363</ele>
        <time>2025-02-05T18:24:41Z</time>
      </trkpt>
      <trkpt lat="46.05899" lon="3.56681">
        <ele>367</ele>
        <time>2025-02-05T18:24:52Z</time>
      </trkpt>
      <trkpt lat="46.05902" lon="3.56653">
        <ele>370</ele>
        <time>2025-02-05T18:24:56Z</time>
      </trkpt>
      <trkpt lat="46.05904" lon="3.56633">
        <ele>373</ele>
        <time>2025-02-05T18:25:00Z</time>
      </trkpt>
      <trkpt lat="46.05905" lon="3.56621">
        <ele>375</ele>
        <time>2025-02-05T18:25:02Z</time>
      </trkpt>
      <trkpt lat="46.0591" lon="3.56625">
        <ele>364.7</ele>
        <time>2025-02-05T18:25:04Z</time>
      </trkpt>
      <trkpt lat="46.05933" lon="3.5661">
        <ele>366</ele>
        <time>2025-02-05T18:25:10Z</time>
      </trkpt>
      <trkpt lat="46.05946" lon="3.56585">
        <ele>369.5</ele>
        <time>2025-02-05T18:25:12Z</time>
      </trkpt>
      <trkpt lat="46.05962" lon="3.56569">
        <ele>370</ele>
        <time>2025-02-05T18:25:17Z</time>
      </trkpt>
      <trkpt lat="46.05979" lon="3.56544">
        <ele>383</ele>
        <time>2025-02-05T18:25:25Z</time>
      </trkpt>
      <trkpt lat="46.0606" lon="3.56506">
        <ele>373.5</ele>
        <time>2025-02-05T18:25:44Z</time>
      </trkpt>
      <trkpt lat="46.06115" lon="3.56477">
        <ele>371.4</ele>
        <time>2025-02-05T18:25:57Z</time>
      </trkpt>
      <trkpt lat="46.06158" lon="3.56465">
        <ele>368.2</ele>
        <time>2025-02-05T18:26:05Z</time>
      </trkpt>
      <trkpt lat="46.06176" lon="3.56464">
        <ele>372</ele>
        <time>2025-02-05T18:26:13Z</time>
      </trkpt>
      <trkpt lat="46.06208" lon="3.56451">
        <ele>366.7</ele>
        <time>2025-02-05T18:26:20Z</time>
      </trkpt>
      <trkpt lat="46.06252" lon="3.56433">
        <ele>365.9</ele>
        <time>2025-02-05T18:26:27Z</time>
      </trkpt>
      <trkpt lat="46.06274" lon="3.56423">
        <ele>368</ele>
        <time>2025-02-05T18:26:37Z</time>
      </trkpt>
      <trkpt lat="46.06291" lon="3.56405">
        <ele>369</ele>
        <time>2025-02-05T18:26:42Z</time>
      </trkpt>
      <trkpt lat="46.06338" lon="3.56371">
        <ele>367</ele>
        <time>2025-02-05T18:26:54Z</time>
      </trkpt>
      <trkpt lat="46.06355" lon="3.56352">
        <ele>366</ele>
        <time>2025-02-05T18:27:00Z</time>
      </trkpt>
      <trkpt lat="46.0639" lon="3.56296">
        <ele>367</ele>
        <time>2025-02-05T18:27:12Z</time>
      </trkpt>
      <trkpt lat="46.064" lon="3.56286">
        <ele>366</ele>
        <time>2025-02-05T18:27:15Z</time>
      </trkpt>
      <trkpt lat="46.06411" lon="3.5627">
        <ele>366</ele>
        <time>2025-02-05T18:27:18Z</time>
      </trkpt>
      <trkpt lat="46.06439" lon="3.56248">
        <ele>365</ele>
        <time>2025-02-05T18:27:26Z</time>
      </trkpt>
      <trkpt lat="46.06464" lon="3.56219">
        <ele>367</ele>
        <time>2025-02-05T18:27:33Z</time>
      </trkpt>
      <trkpt lat="46.0649" lon="3.56201">
        <ele>366</ele>
        <time>2025-02-05T18:27:40Z</time>
      </trkpt>
      <trkpt lat="46.06508" lon="3.56174">
        <ele>366</ele>
        <time>2025-02-05T18:27:46Z</time>
      </trkpt>
      <trkpt lat="46.06531" lon="3.56147">
        <ele>366</ele>
        <time>2025-02-05T18:27:53Z</time>
      </trkpt>
      <trkpt lat="46.0655" lon="3.56131">
        <ele>365</ele>
        <time>2025-02-05T18:27:58Z</time>
      </trkpt>
      <trkpt lat="46.06556" lon="3.56115">
        <ele>356.9</ele>
        <time>2025-02-05T18:28:02Z</time>
      </trkpt>
      <trkpt lat="46.06557" lon="3.56105">
        <ele>357.4</ele>
        <time>2025-02-05T18:28:05Z</time>
      </trkpt>
      <trkpt lat="46.06561" lon="3.56067">
        <ele>361.7</ele>
        <time>2025-02-05T18:28:16Z</time>
      </trkpt>
      <trkpt lat="46.06577" lon="3.5606">
        <ele>364.3</ele>
      </trkpt>
      <trkpt lat="46.06588" lon="3.56059">
        <ele>371</ele>
        <time>2025-02-05T18:28:24Z</time>
      </trkpt>
      <trkpt lat="46.066" lon="3.56063">
        <ele>369</ele>
        <time>2025-02-05T18:28:27Z</time>
      </trkpt>
      <trkpt lat="46.06608" lon="3.56058">
        <ele>369</ele>
        <time>2025-02-05T18:28:29Z</time>
      </trkpt>
      <trkpt lat="46.06618" lon="3.56023">
        <ele>373</ele>
        <time>2025-02-05T18:28:35Z</time>
      </trkpt>
      <trkpt lat="46.06613" lon="3.55987">
        <ele>379</ele>
        <time>2025-02-05T18:28:41Z</time>
      </trkpt>
      <trkpt lat="46.06596" lon="3.55975">
        <ele>383</ele>
        <time>2025-02-05T18:28:46Z</time>
      </trkpt>
      <trkpt lat="46.06587" lon="3.55969">
        <ele>382.5</ele>
        <time>2025-02-05T18:28:48Z</time>
      </trkpt>
      <trkpt lat="46.06566" lon="3.55972">
        <ele>384.9</ele>
        <time>2025-02-05T18:28:54Z</time>
      </trkpt>
      <trkpt lat="46.06546" lon="3.55966">
        <ele>391</ele>
        <time>2025-02-05T18:28:58Z</time>
      </trkpt>
      <trkpt lat="46.06535" lon="3.55958">
        <ele>393</ele>
        <time>2025-02-05T18:29:01Z</time>
      </trkpt>
      <trkpt lat="46.0652" lon="3.55925">
        <ele>402</ele>
        <time>2025-02-05T18:29:07Z</time>
      </trkpt>
      <trkpt lat="46.06498" lon="3.55897">
        <ele>409</ele>
        <time>2025-02-05T18:29:14Z</time>
      </trkpt>
      <trkpt lat="46.06478" lon="3.55886">
        <ele>411</ele>
        <time>2025-02-05T18:29:19Z</time>
      </trkpt>
      <trkpt lat="46.0647" lon="3.55878">
        <ele>412</ele>
        <time>2025-02-05T18:29:21Z</time>
      </trkpt>
      <trkpt lat="46.0646" lon="3.55868">
        <ele>414</ele>
        <time>2025-02-05T18:29:24Z</time>
      </trkpt>
      <trkpt lat="46.06431" lon="3.55817">
        <ele>419.4</ele>
        <time>2025-02-05T18:29:35Z</time>
      </trkpt>
      <trkpt lat="46.06413" lon="3.55746">
        <ele>424</ele>
        <time>2025-02-05T18:29:47Z</time>
      </trkpt>
      <trkpt lat="46.06411" lon="3.55735">
        <ele>423</ele>
        <time>2025-02-05T18:29:49Z</time>
      </trkpt>
      <trkpt lat="46.06481" lon="3.55701">
        <ele>427</ele>
        <time>2025-02-05T18:30:06Z</time>
      </trkpt>
      <trkpt lat="46.06509" lon="3.55684">
        <ele>428</ele>
        <time>2025-02-05T18:30:14Z</time>
      </trkpt>
      <trkpt lat="46.06521" lon="3.55681">
        <ele>428</ele>
        <time>2025-02-05T18:30:16Z</time>
      </trkpt>
      <trkpt lat="46.06538" lon="3.55689">
        <ele>428</ele>
        <time>2025-02-05T18:30:21Z</time>
      </trkpt>
      <trkpt lat="46.0655" lon="3.55692">
        <ele>427</ele>
        <time>2025-02-05T18:30:23Z</time>
      </trkpt>
      <trkpt lat="46.06566" lon="3.55686">
        <ele>427</ele>
        <time>2025-02-05T18:30:27Z</time>
      </trkpt>
      <trkpt lat="46.06579" lon="3.55675">
        <ele>428</ele>
        <time>2025-02-05T18:30:31Z</time>
      </trkpt>
      <trkpt lat="46.06587" lon="3.55665">
        <ele>427</ele>
        <time>2025-02-05T18:30:33Z</time>
      </trkpt>
      <trkpt lat="46.06593" lon="3.55644">
        <ele>425</ele>
        <time>2025-02-05T18:30:37Z</time>
      </trkpt>
      <trkpt lat="46.06595" lon="3.55587">
        <ele>421</ele>
        <time>2025-02-05T18:30:46Z</time>
      </trkpt>
      <trkpt lat="46.06594" lon="3.5556">
        <ele>419</ele>
        <time>2025-02-05T18:30:51Z</time>
      </trkpt>
      <trkpt lat="46.06597" lon="3.55531">
        <ele>416</ele>
        <time>2025-02-05T18:30:55Z</time>
      </trkpt>
      <trkpt lat="46.06607" lon="3.55476">
        <ele>413</ele>
        <time>2025-02-05T18:31:04Z</time>
      </trkpt>
      <trkpt lat="46.0663" lon="3.55452">
        <ele>413</ele>
        <time>2025-02-05T18:31:11Z</time>
      </trkpt>
      <trkpt lat="46.06586" lon="3.55381">
        <ele>412</ele>
        <time>2025-02-05T18:31:27Z</time>
      </trkpt>
      <trkpt lat="46.06578" lon="3.55366">
        <ele>411</ele>
        <time>2025-02-05T18:31:30Z</time>
      </trkpt>
      <trkpt lat="46.06558" lon="3.55307">
        <ele>409</ele>
        <time>2025-02-05T18:31:40Z</time>
      </trkpt>
      <trkpt lat="46.06541" lon="3.55292">
        <ele>407</ele>
        <time>2025-02-05T18:31:45Z</time>
      </trkpt>
      <trkpt lat="46.06534" lon="3.55281">
        <ele>406</ele>
        <time>2025-02-05T18:31:47Z</time>
      </trkpt>
      <trkpt lat="46.06523" lon="3.55253">
        <ele>405</ele>
        <time>2025-02-05T18:31:53Z</time>
      </trkpt>
      <trkpt lat="46.06521" lon="3.55237">
        <ele>404</ele>
        <time>2025-02-05T18:31:55Z</time>
      </trkpt>
      <trkpt lat="46.06522" lon="3.55209">
        <ele>403</ele>
        <time>2025-02-05T18:32:00Z</time>
      </trkpt>
      <trkpt lat="46.06536" lon="3.55171">
        <ele>403</ele>
        <time>2025-02-05T18:32:07Z</time>
      </trkpt>
      <trkpt lat="46.06543" lon="3.55115">
        <ele>400</ele>
        <time>2025-02-05T18:32:16Z</time>
      </trkpt>
      <trkpt lat="46.06546" lon="3.55105">
        <ele>399</ele>
        <time>2025-02-05T18:32:18Z</time>
      </trkpt>
      <trkpt lat="46.06563" lon="3.55079">
        <ele>398</ele>
        <time>2025-02-05T18:32:23Z</time>
      </trkpt>
      <trkpt lat="46.06601" lon="3.55049">
        <ele>397</ele>
        <time>2025-02-05T18:32:34Z</time>
      </trkpt>
      <trkpt lat="46.06648" lon="3.55013">
        <ele>393</ele>
        <time>2025-02-05T18:32:46Z</time>
      </trkpt>
      <trkpt lat="46.06662" lon="3.55004">
        <ele>391</ele>
        <time>2025-02-05T18:32:50Z</time>
      </trkpt>
      <trkpt lat="46.06663" lon="3.55002">
        <ele>378.9</ele>
      </trkpt>
      <trkpt lat="46.06667" lon="3.55">
        <ele>377.9</ele>
        <time>2025-02-05T18:32:51Z</time>
      </trkpt>
      <trkpt lat="46.06682" lon="3.54993">
        <ele>376.7</ele>
      </trkpt>
      <trkpt lat="46.06692" lon="3.54979">
        <ele>391</ele>
        <time>2025-02-05T18:32:58Z</time>
      </trkpt>
      <trkpt lat="46.06698" lon="3.54969">
        <ele>377.2</ele>
      </trkpt>
      <trkpt lat="46.06714" lon="3.54967">
        <ele>392</ele>
        <time>2025-02-05T18:33:03Z</time>
      </trkpt>
      <trkpt lat="46.06726" lon="3.54962">
        <ele>382.9</ele>
      </trkpt>
      <trkpt lat="46.06744" lon="3.54966">
        <ele>394</ele>
        <time>2025-02-05T18:33:10Z</time>
      </trkpt>
      <trkpt lat="46.06766" lon="3.54968">
        <ele>386.8</ele>
        <time>2025-02-05T18:33:16Z</time>
      </trkpt>
      <trkpt lat="46.06796" lon="3.54976">
        <ele>388.2</ele>
      </trkpt>
      <trkpt lat="46.06806" lon="3.54973">
        <ele>389.8</ele>
        <time>2025-02-05T18:33:25Z</time>
      </trkpt>
      <trkpt lat="46.0682" lon="3.54953">
        <ele>396</ele>
        <time>2025-02-05T18:33:29Z</time>
      </trkpt>
      <trkpt lat="46.06831" lon="3.54921">
        <ele>400</ele>
        <time>2025-02-05T18:33:35Z</time>
      </trkpt>
      <trkpt lat="46.06855" lon="3.54886">
        <ele>405</ele>
        <time>2025-02-05T18:33:43Z</time>
      </trkpt>
      <trkpt lat="46.06877" lon="3.54887">
        <ele>404</ele>
        <time>2025-02-05T18:33:48Z</time>
      </trkpt>
      <trkpt lat="46.06893" lon="3.54903">
        <ele>401</ele>
        <time>2025-02-05T18:33:52Z</time>
      </trkpt>
      <trkpt lat="46.06926" lon="3.54922">
        <ele>397</ele>
        <time>2025-02-05T18:34:01Z</time>
      </trkpt>
      <trkpt lat="46.06938" lon="3.54897">
        <ele>399</ele>
        <time>2025-02-05T18:34:06Z</time>
      </trkpt>
      <trkpt lat="46.06918" lon="3.54886">
        <ele>402</ele>
        <time>2025-02-05T18:34:11Z</time>
      </trkpt>
      <trkpt lat="46.06865" lon="3.54828">
        <ele>412</ele>
        <time>2025-02-05T18:34:26Z</time>
      </trkpt>
      <trkpt lat="46.0683" lon="3.54796">
        <ele>417</ele>
        <time>2025-02-05T18:34:36Z</time>
      </trkpt>
      <trkpt lat="46.06812" lon="3.5478">
        <ele>417</ele>
        <time>2025-02-05T18:34:41Z</time>
      </trkpt>
      <trkpt lat="46.06794" lon="3.54755">
        <ele>416</ele>
        <time>2025-02-05T18:34:47Z</time>
      </trkpt>
      <trkpt lat="46.06788" lon="3.54742">
        <ele>416</ele>
        <time>2025-02-05T18:34:49Z</time>
      </trkpt>
      <trkpt lat="46.06788" lon="3.5473">
        <ele>417</ele>
        <time>2025-02-05T18:34:51Z</time>
      </trkpt>
      <trkpt lat="46.06784" lon="3.54724">
        <ele>417</ele>
        <time>2025-02-05T18:34:52Z</time>
      </trkpt>
      <trkpt lat="46.06779" lon="3.54718">
        <ele>416</ele>
        <time>2025-02-05T18:34:54Z</time>
      </trkpt>
      <trkpt lat="46.06773" lon="3.54692">
        <ele>414.8</ele>
        <time>2025-02-05T18:34:58Z</time>
      </trkpt>
      <trkpt lat="46.0677" lon="3.54652">
        <ele>413.2</ele>
        <time>2025-02-05T18:35:05Z</time>
      </trkpt>
      <trkpt lat="46.06772" lon="3.54613">
        <ele>412</ele>
      </trkpt>
      <trkpt lat="46.0678" lon="3.5456">
        <ele>421</ele>
        <time>2025-02-05T18:35:21Z</time>
      </trkpt>
      <trkpt lat="46.06786" lon="3.54522">
        <ele>410.6</ele>
      </trkpt>
      <trkpt lat="46.06793" lon="3.54465">
        <ele>412.4</ele>
        <time>2025-02-05T18:35:41Z</time>
      </trkpt>
      <trkpt lat="46.06792" lon="3.544">
        <ele>416</ele>
      </trkpt>
      <trkpt lat="46.06775" lon="3.54328">
        <ele>432</ele>
        <time>2025-02-05T18:36:00Z</time>
      </trkpt>
      <trkpt lat="46.06759" lon="3.54236">
        <ele>422.9</ele>
        <time>2025-02-05T18:36:17Z</time>
      </trkpt>
      <trkpt lat="46.0675" lon="3.5421">
        <ele>423.4</ele>
        <time>2025-02-05T18:36:19Z</time>
      </trkpt>
      <trkpt lat="46.06704" lon="3.54141">
        <ele>433.4</ele>
        <time>2025-02-05T18:36:35Z</time>
      </trkpt>
      <trkpt lat="46.06652" lon="3.54058">
        <ele>448.9</ele>
        <time>2025-02-05T18:36:53Z</time>
      </trkpt>
      <trkpt lat="46.06635" lon="3.54025">
        <ele>457.7</ele>
        <time>2025-02-05T18:37:03Z</time>
      </trkpt>
      <trkpt lat="46.06627" lon="3.54006">
        <ele>458.5</ele>
        <time>2025-02-05T18:37:06Z</time>
      </trkpt>
      <trkpt lat="46.06657" lon="3.53974">
        <ele>456</ele>
        <time>2025-02-05T18:37:16Z</time>
      </trkpt>
      <trkpt lat="46.06701" lon="3.53951">
        <ele>458</ele>
        <time>2025-02-05T18:37:27Z</time>
      </trkpt>
      <trkpt lat="46.06708" lon="3.53945">
        <ele>459</ele>
        <time>2025-02-05T18:37:29Z</time>
      </trkpt>
      <trkpt lat="46.0672" lon="3.53918">
        <ele>462</ele>
        <time>2025-02-05T18:37:34Z</time>
      </trkpt>
      <trkpt lat="46.06735" lon="3.53892">
        <ele>461</ele>
        <time>2025-02-05T18:37:39Z</time>
      </trkpt>
      <trkpt lat="46.0676" lon="3.53872">
        <ele>461</ele>
        <time>2025-02-05T18:37:46Z</time>
      </trkpt>
      <trkpt lat="46.06775" lon="3.53863">
        <ele>461</ele>
        <time>2025-02-05T18:37:50Z</time>
      </trkpt>
      <trkpt lat="46.06827" lon="3.53848">
        <ele>463</ele>
        <time>2025-02-05T18:38:02Z</time>
      </trkpt>
      <trkpt lat="46.06888" lon="3.53819">
        <ele>457</ele>
        <time>2025-02-05T18:38:17Z</time>
      </trkpt>
      <trkpt lat="46.06898" lon="3.53817">
        <ele>457</ele>
        <time>2025-02-05T18:38:20Z</time>
      </trkpt>
      <trkpt lat="46.0694" lon="3.53806">
        <ele>454</ele>
        <time>2025-02-05T18:38:29Z</time>
      </trkpt>
      <trkpt lat="46.06976" lon="3.53789">
        <ele>444.3</ele>
        <time>2025-02-05T18:38:36Z</time>
      </trkpt>
      <trkpt lat="46.07045" lon="3.53856">
        <ele>445.6</ele>
        <time>2025-02-05T18:38:48Z</time>
      </trkpt>
      <trkpt lat="46.07088" lon="3.53888">
        <ele>445.4</ele>
        <time>2025-02-05T18:39:02Z</time>
      </trkpt>
      <trkpt lat="46.07126" lon="3.53914">
        <ele>439.9</ele>
        <time>2025-02-05T18:39:15Z</time>
      </trkpt>
      <trkpt lat="46.07141" lon="3.5394">
        <ele>444</ele>
        <time>2025-02-05T18:39:22Z</time>
      </trkpt>
      <trkpt lat="46.0715" lon="3.5395">
        <ele>443</ele>
        <time>2025-02-05T18:39:25Z</time>
      </trkpt>
      <trkpt lat="46.07184" lon="3.53929">
        <ele>445</ele>
        <time>2025-02-05T18:39:34Z</time>
      </trkpt>
      <trkpt lat="46.07196" lon="3.53916">
        <ele>444</ele>
        <time>2025-02-05T18:39:37Z</time>
      </trkpt>
      <trkpt lat="46.07211" lon="3.53911">
        <ele>442</ele>
        <time>2025-02-05T18:39:41Z</time>
      </trkpt>
      <trkpt lat="46.07235" lon="3.53915">
        <ele>426.6</ele>
        <time>2025-02-05T18:39:46Z</time>
      </trkpt>
      <trkpt lat="46.07266" lon="3.53912">
        <ele>432</ele>
        <time>2025-02-05T18:39:53Z</time>
      </trkpt>
      <trkpt lat="46.07288" lon="3.53916">
        <ele>427</ele>
        <time>2025-02-05T18:39:59Z</time>
      </trkpt>
      <trkpt lat="46.07316" lon="3.53928">
        <ele>421</ele>
        <time>2025-02-05T18:40:05Z</time>
      </trkpt>
      <trkpt lat="46.07354" lon="3.53929">
        <ele>411</ele>
        <time>2025-02-05T18:40:14Z</time>
      </trkpt>
      <trkpt lat="46.07371" lon="3.53927">
        <ele>407</ele>
        <time>2025-02-05T18:40:18Z</time>
      </trkpt>
      <trkpt lat="46.07388" lon="3.53934">
        <ele>402</ele>
        <time>2025-02-05T18:40:22Z</time>
      </trkpt>
      <trkpt lat="46.07416" lon="3.53935">
        <ele>395</ele>
        <time>2025-02-05T18:40:29Z</time>
      </trkpt>
      <trkpt lat="46.07426" lon="3.5395">
        <ele>393</ele>
        <time>2025-02-05T18:40:32Z</time>
      </trkpt>
      <trkpt lat="46.07438" lon="3.53977">
        <ele>389</ele>
        <time>2025-02-05T18:40:38Z</time>
      </trkpt>
      <trkpt lat="46.07478" lon="3.54026">
        <ele>376</ele>
        <time>2025-02-05T18:40:50Z</time>
      </trkpt>
      <trkpt lat="46.07499" lon="3.54062">
        <ele>366</ele>
        <time>2025-02-05T18:40:57Z</time>
      </trkpt>
      <trkpt lat="46.07519" lon="3.54083">
        <ele>363</ele>
        <time>2025-02-05T18:41:03Z</time>
      </trkpt>
      <trkpt lat="46.0753" lon="3.54088">
        <ele>361</ele>
        <time>2025-02-05T18:41:06Z</time>
      </trkpt>
      <trkpt lat="46.07556" lon="3.54088">
        <ele>358</ele>
        <time>2025-02-05T18:41:12Z</time>
      </trkpt>
      <trkpt lat="46.07574" lon="3.54091">
        <ele>355</ele>
        <time>2025-02-05T18:41:16Z</time>
      </trkpt>
      <trkpt lat="46.07588" lon="3.54077">
        <ele>356</ele>
        <time>2025-02-05T18:41:20Z</time>
      </trkpt>
      <trkpt lat="46.07575" lon="3.54067">
        <ele>359</ele>
        <time>2025-02-05T18:41:24Z</time>
      </trkpt>
      <trkpt lat="46.07571" lon="3.54062">
        <ele>360</ele>
        <time>2025-02-05T18:41:25Z</time>
      </trkpt>
      <trkpt lat="46.07567" lon="3.54052">
        <ele>362</ele>
        <time>2025-02-05T18:41:27Z</time>
      </trkpt>
      <trkpt lat="46.07566" lon="3.54042">
        <ele>363</ele>
        <time>2025-02-05T18:41:28Z</time>
      </trkpt>
      <trkpt lat="46.07567" lon="3.54025">
        <ele>366</ele>
        <time>2025-02-05T18:41:31Z</time>
      </trkpt>
      <trkpt lat="46.07565" lon="3.54011">
        <ele>368</ele>
        <time>2025-02-05T18:41:33Z</time>
      </trkpt>
      <trkpt lat="46.07558" lon="3.53996">
        <ele>370</ele>
        <time>2025-02-05T18:41:36Z</time>
      </trkpt>
      <trkpt lat="46.07547" lon="3.53991">
        <ele>370</ele>
        <time>2025-02-05T18:41:39Z</time>
      </trkpt>
      <trkpt lat="46.07542" lon="3.53985">
        <ele>370</ele>
        <time>2025-02-05T18:41:41Z</time>
      </trkpt>
      <trkpt lat="46.07528" lon="3.5397">
        <ele>371</ele>
        <time>2025-02-05T18:41:45Z</time>
      </trkpt>
      <trkpt lat="46.07526" lon="3.5396">
        <ele>372</ele>
        <time>2025-02-05T18:41:46Z</time>
      </trkpt>
      <trkpt lat="46.07528" lon="3.53949">
        <ele>372</ele>
        <time>2025-02-05T18:41:48Z</time>
      </trkpt>
      <trkpt lat="46.07531" lon="3.53943">
        <ele>373</ele>
        <time>2025-02-05T18:41:49Z</time>
      </trkpt>
      <trkpt lat="46.07537" lon="3.53943">
        <ele>373</ele>
        <time>2025-02-05T18:41:51Z</time>
      </trkpt>
      <trkpt lat="46.07542" lon="3.53946">
        <ele>373</ele>
        <time>2025-02-05T18:41:52Z</time>
      </trkpt>
      <trkpt lat="46.07555" lon="3.53964">
        <ele>372</ele>
        <time>2025-02-05T18:41:56Z</time>
      </trkpt>
      <trkpt lat="46.07563" lon="3.53969">
        <ele>372</ele>
        <time>2025-02-05T18:41:58Z</time>
      </trkpt>
      <trkpt lat="46.07573" lon="3.53968">
        <ele>372</ele>
        <time>2025-02-05T18:42:01Z</time>
      </trkpt>
      <trkpt lat="46.07584" lon="3.53961">
        <ele>373</ele>
        <time>2025-02-05T18:42:03Z</time>
      </trkpt>
      <trkpt lat="46.07595" lon="3.5395">
        <ele>376</ele>
        <time>2025-02-05T18:42:07Z</time>
      </trkpt>
      <trkpt lat="46.07626" lon="3.53905">
        <ele>385</ele>
        <time>2025-02-05T18:42:17Z</time>
      </trkpt>
      <trkpt lat="46.0764" lon="3.53887">
        <ele>389</ele>
        <time>2025-02-05T18:42:21Z</time>
      </trkpt>
      <trkpt lat="46.07659" lon="3.53868">
        <ele>392</ele>
        <time>2025-02-05T18:42:27Z</time>
      </trkpt>
      <trkpt lat="46.0767" lon="3.53861">
        <ele>393</ele>
        <time>2025-02-05T18:42:29Z</time>
      </trkpt>
      <trkpt lat="46.0767" lon="3.53856">
        <ele>393</ele>
        <time>2025-02-05T18:42:30Z</time>
      </trkpt>
      <trkpt lat="46.07669" lon="3.53816">
        <ele>394</ele>
        <time>2025-02-05T18:42:37Z</time>
      </trkpt>
      <trkpt lat="46.07666" lon="3.53806">
        <ele>394</ele>
        <time>2025-02-05T18:42:39Z</time>
      </trkpt>
      <trkpt lat="46.0766" lon="3.53795">
        <ele>394</ele>
        <time>2025-02-05T18:42:41Z</time>
      </trkpt>
      <trkpt lat="46.07636" lon="3.53765">
        <ele>395</ele>
        <time>2025-02-05T18:42:48Z</time>
      </trkpt>
      <trkpt lat="46.07621" lon="3.53743">
        <ele>397</ele>
        <time>2025-02-05T18:42:53Z</time>
      </trkpt>
      <trkpt lat="46.07591" lon="3.53683">
        <ele>402</ele>
        <time>2025-02-05T18:43:05Z</time>
      </trkpt>
      <trkpt lat="46.0757" lon="3.53638">
        <ele>404</ele>
        <time>2025-02-05T18:43:14Z</time>
      </trkpt>
      <trkpt lat="46.07569" lon="3.53627">
        <ele>405</ele>
        <time>2025-02-05T18:43:16Z</time>
      </trkpt>
      <trkpt lat="46.07569" lon="3.53625">
        <ele>405</ele>
        <time>2025-02-05T18:43:16Z</time>
      </trkpt>
      <trkpt lat="46.07507" lon="3.53517">
        <ele>417</ele>
        <time>2025-02-05T18:43:39Z</time>
      </trkpt>
      <trkpt lat="46.07476" lon="3.53477">
        <ele>421</ele>
        <time>2025-02-05T18:43:49Z</time>
      </trkpt>
      <trkpt lat="46.07466" lon="3.53464">
        <ele>422</ele>
        <time>2025-02-05T18:43:52Z</time>
      </trkpt>
      <trkpt lat="46.07465" lon="3.53446">
        <ele>425</ele>
        <time>2025-02-05T18:43:55Z</time>
      </trkpt>
      <trkpt lat="46.0746" lon="3.53425">
        <ele>427</ele>
        <time>2025-02-05T18:43:58Z</time>
      </trkpt>
      <trkpt lat="46.07465" lon="3.53396">
        <ele>430</ele>
        <time>2025-02-05T18:44:03Z</time>
      </trkpt>
      <trkpt lat="46.07477" lon="3.5335">
        <ele>433</ele>
        <time>2025-02-05T18:44:11Z</time>
      </trkpt>
      <trkpt lat="46.07502" lon="3.53338">
        <ele>438</ele>
        <time>2025-02-05T18:44:17Z</time>
      </trkpt>
      <trkpt lat="46.07525" lon="3.53351">
        <ele>439</ele>
        <time>2025-02-05T18:44:23Z</time>
      </trkpt>
      <trkpt lat="46.07559" lon="3.53355">
        <ele>441</ele>
        <time>2025-02-05T18:44:31Z</time>
      </trkpt>
      <trkpt lat="46.07632" lon="3.53346">
        <ele>450</ele>
        <time>2025-02-05T18:44:48Z</time>
      </trkpt>
      <trkpt lat="46.07641" lon="3.53339">
        <ele>452</ele>
        <time>2025-02-05T18:44:50Z</time>
      </trkpt>
      <trkpt lat="46.07645" lon="3.5333">
        <ele>453</ele>
        <time>2025-02-05T18:44:52Z</time>
      </trkpt>
      <trkpt lat="46.07649" lon="3.53291">
        <ele>455</ele>
        <time>2025-02-05T18:44:59Z</time>
      </trkpt>
      <trkpt lat="46.07653" lon="3.53278">
        <ele>457</ele>
        <time>2025-02-05T18:45:01Z</time>
      </trkpt>
      <trkpt lat="46.0766" lon="3.53264">
        <ele>458</ele>
        <time>2025-02-05T18:45:04Z</time>
      </trkpt>
      <trkpt lat="46.07701" lon="3.53221">
        <ele>465</ele>
        <time>2025-02-05T18:45:15Z</time>
      </trkpt>
      <trkpt lat="46.07738" lon="3.53196">
        <ele>470</ele>
        <time>2025-02-05T18:45:25Z</time>
      </trkpt>
      <trkpt lat="46.07763" lon="3.53188">
        <ele>473</ele>
        <time>2025-02-05T18:45:31Z</time>
      </trkpt>
      <trkpt lat="46.07793" lon="3.53186">
        <ele>475</ele>
        <time>2025-02-05T18:45:38Z</time>
      </trkpt>
      <trkpt lat="46.07797" lon="3.53184">
        <ele>475</ele>
        <time>2025-02-05T18:45:39Z</time>
      </trkpt>
      <trkpt lat="46.07889" lon="3.5312">
        <ele>478</ele>
        <time>2025-02-05T18:46:03Z</time>
      </trkpt>
      <trkpt lat="46.07904" lon="3.53113">
        <ele>478</ele>
        <time>2025-02-05T18:46:07Z</time>
      </trkpt>
      <trkpt lat="46.07903" lon="3.53104">
        <ele>478</ele>
        <time>2025-02-05T18:46:08Z</time>
      </trkpt>
      <trkpt lat="46.079" lon="3.53088">
        <ele>478</ele>
        <time>2025-02-05T18:46:11Z</time>
      </trkpt>
      <trkpt lat="46.0787" lon="3.52979">
        <ele>482</ele>
        <time>2025-02-05T18:46:30Z</time>
      </trkpt>
      <trkpt lat="46.07863" lon="3.52959">
        <ele>483</ele>
        <time>2025-02-05T18:46:33Z</time>
      </trkpt>
      <trkpt lat="46.07846" lon="3.52936">
        <ele>485</ele>
        <time>2025-02-05T18:46:39Z</time>
      </trkpt>
      <trkpt lat="46.07835" lon="3.52915">
        <ele>487</ele>
        <time>2025-02-05T18:46:43Z</time>
      </trkpt>
      <trkpt lat="46.07826" lon="3.52894">
        <ele>486</ele>
        <time>2025-02-05T18:46:47Z</time>
      </trkpt>
      <trkpt lat="46.07822" lon="3.52878">
        <ele>486</ele>
        <time>2025-02-05T18:46:50Z</time>
      </trkpt>
      <trkpt lat="46.07817" lon="3.52843">
        <ele>485</ele>
        <time>2025-02-05T18:46:56Z</time>
      </trkpt>
      <trkpt lat="46.07798" lon="3.52747">
        <ele>487</ele>
        <time>2025-02-05T18:47:12Z</time>
      </trkpt>
      <trkpt lat="46.07802" lon="3.52736">
        <ele>488</ele>
        <time>2025-02-05T18:47:14Z</time>
      </trkpt>
      <trkpt lat="46.07815" lon="3.52686">
        <ele>491</ele>
        <time>2025-02-05T18:47:22Z</time>
      </trkpt>
      <trkpt lat="46.07825" lon="3.52621">
        <ele>495</ele>
        <time>2025-02-05T18:47:33Z</time>
      </trkpt>
      <trkpt lat="46.07823" lon="3.52607">
        <ele>496</ele>
        <time>2025-02-05T18:47:35Z</time>
      </trkpt>
      <trkpt lat="46.07823" lon="3.52601">
        <ele>496</ele>
        <time>2025-02-05T18:47:36Z</time>
      </trkpt>
      <trkpt lat="46.07823" lon="3.52607">
        <ele>496</ele>
        <time>2025-02-05T18:47:37Z</time>
      </trkpt>
      <trkpt lat="46.07852" lon="3.52609">
        <ele>494</ele>
        <time>2025-02-05T18:47:44Z</time>
      </trkpt>
      <trkpt lat="46.07878" lon="3.52619">
        <ele>491</ele>
        <time>2025-02-05T18:47:50Z</time>
      </trkpt>
      <trkpt lat="46.07911" lon="3.52626">
        <ele>488</ele>
        <time>2025-02-05T18:47:58Z</time>
      </trkpt>
      <trkpt lat="46.07948" lon="3.52626">
        <ele>482</ele>
        <time>2025-02-05T18:48:07Z</time>
      </trkpt>
      <trkpt lat="46.07958" lon="3.52641">
        <ele>480</ele>
        <time>2025-02-05T18:48:10Z</time>
      </trkpt>
      <trkpt lat="46.08009" lon="3.52671">
        <ele>472</ele>
        <time>2025-02-05T18:48:23Z</time>
      </trkpt>
      <trkpt lat="46.0805" lon="3.52702">
        <ele>463</ele>
        <time>2025-02-05T18:48:34Z</time>
      </trkpt>
      <trkpt lat="46.08073" lon="3.52731">
        <ele>461</ele>
        <time>2025-02-05T18:48:41Z</time>
      </trkpt>
      <trkpt lat="46.08176" lon="3.5281">
        <ele>449</ele>
        <time>2025-02-05T18:49:08Z</time>
      </trkpt>
      <trkpt lat="46.08202" lon="3.52824">
        <ele>448</ele>
        <time>2025-02-05T18:49:15Z</time>
      </trkpt>
      <trkpt lat="46.08245" lon="3.52837">
        <ele>448</ele>
        <time>2025-02-05T18:49:25Z</time>
      </trkpt>
      <trkpt lat="46.08305" lon="3.52891">
        <ele>440</ele>
        <time>2025-02-05T18:49:42Z</time>
      </trkpt>
      <trkpt lat="46.08347" lon="3.5291">
        <ele>435</ele>
        <time>2025-02-05T18:49:52Z</time>
      </trkpt>
      <trkpt lat="46.08365" lon="3.52904">
        <ele>431</ele>
        <time>2025-02-05T18:49:56Z</time>
      </trkpt>
      <trkpt lat="46.08376" lon="3.52901">
        <ele>430</ele>
        <time>2025-02-05T18:49:59Z</time>
      </trkpt>
      <trkpt lat="46.08391" lon="3.52891">
        <ele>427</ele>
        <time>2025-02-05T18:50:03Z</time>
      </trkpt>
      <trkpt lat="46.0841" lon="3.52869">
        <ele>422</ele>
        <time>2025-02-05T18:50:08Z</time>
      </trkpt>
      <trkpt lat="46.08426" lon="3.52867">
        <ele>419</ele>
        <time>2025-02-05T18:50:12Z</time>
      </trkpt>
      <trkpt lat="46.08451" lon="3.52848">
        <ele>414</ele>
        <time>2025-02-05T18:50:19Z</time>
      </trkpt>
      <trkpt lat="46.08486" lon="3.5284">
        <ele>408</ele>
        <time>2025-02-05T18:50:27Z</time>
      </trkpt>
      <trkpt lat="46.08532" lon="3.52823">
        <ele>400</ele>
        <time>2025-02-05T18:50:38Z</time>
      </trkpt>
      <trkpt lat="46.08566" lon="3.52795">
        <ele>396</ele>
        <time>2025-02-05T18:50:47Z</time>
      </trkpt>
      <trkpt lat="46.0857" lon="3.52784">
        <ele>396</ele>
        <time>2025-02-05T18:50:49Z</time>
      </trkpt>
      <trkpt lat="46.08597" lon="3.52775">
        <ele>395</ele>
        <time>2025-02-05T18:50:56Z</time>
      </trkpt>
      <trkpt lat="46.0864" lon="3.52807">
        <ele>395</ele>
        <time>2025-02-05T18:51:07Z</time>
      </trkpt>
      <trkpt lat="46.08673" lon="3.52838">
        <ele>396</ele>
        <time>2025-02-05T18:51:16Z</time>
      </trkpt>
      <trkpt lat="46.08698" lon="3.52872">
        <ele>396</ele>
        <time>2025-02-05T18:51:24Z</time>
      </trkpt>
      <trkpt lat="46.08739" lon="3.52908">
        <ele>397</ele>
        <time>2025-02-05T18:51:35Z</time>
      </trkpt>
      <trkpt lat="46.08775" lon="3.52943">
        <ele>395</ele>
        <time>2025-02-05T18:51:46Z</time>
      </trkpt>
      <trkpt lat="46.08811" lon="3.53002">
        <ele>391</ele>
        <time>2025-02-05T18:51:58Z</time>
      </trkpt>
      <trkpt lat="46.08849" lon="3.53051">
        <ele>387</ele>
        <time>2025-02-05T18:52:10Z</time>
      </trkpt>
      <trkpt lat="46.08852" lon="3.5307">
        <ele>386</ele>
        <time>2025-02-05T18:52:13Z</time>
      </trkpt>
      <trkpt lat="46.08856" lon="3.5312">
        <ele>380</ele>
        <time>2025-02-05T18:52:22Z</time>
      </trkpt>
      <trkpt lat="46.08862" lon="3.53141">
        <ele>377</ele>
        <time>2025-02-05T18:52:25Z</time>
      </trkpt>
      <trkpt lat="46.08891" lon="3.53144">
        <ele>374</ele>
        <time>2025-02-05T18:52:32Z</time>
      </trkpt>
      <trkpt lat="46.08905" lon="3.53151">
        <ele>372</ele>
        <time>2025-02-05T18:52:35Z</time>
      </trkpt>
      <trkpt lat="46.0892" lon="3.53158">
        <ele>369</ele>
        <time>2025-02-05T18:52:39Z</time>
      </trkpt>
      <trkpt lat="46.0894" lon="3.53155">
        <ele>365</ele>
        <time>2025-02-05T18:52:44Z</time>
      </trkpt>
      <trkpt lat="46.08953" lon="3.53138">
        <ele>363</ele>
        <time>2025-02-05T18:52:48Z</time>
      </trkpt>
      <trkpt lat="46.08963" lon="3.53116">
        <ele>362</ele>
        <time>2025-02-05T18:52:52Z</time>
      </trkpt>
      <trkpt lat="46.08976" lon="3.53103">
        <ele>359</ele>
        <time>2025-02-05T18:52:56Z</time>
      </trkpt>
      <trkpt lat="46.09013" lon="3.53083">
        <ele>352</ele>
        <time>2025-02-05T18:53:05Z</time>
      </trkpt>
      <trkpt lat="46.09043" lon="3.53063">
        <ele>347</ele>
        <time>2025-02-05T18:53:13Z</time>
      </trkpt>
      <trkpt lat="46.0909" lon="3.52998">
        <ele>339</ele>
        <time>2025-02-05T18:53:28Z</time>
      </trkpt>
      <trkpt lat="46.09114" lon="3.52948">
        <ele>343</ele>
        <time>2025-02-05T18:53:38Z</time>
      </trkpt>
      <trkpt lat="46.09182" lon="3.52856">
        <ele>347</ele>
        <time>2025-02-05T18:54:00Z</time>
      </trkpt>
      <trkpt lat="46.09202" lon="3.52844">
        <ele>346</ele>
        <time>2025-02-05T18:54:05Z</time>
      </trkpt>
      <trkpt lat="46.09212" lon="3.52825">
        <ele>347</ele>
        <time>2025-02-05T18:54:09Z</time>
      </trkpt>
      <trkpt lat="46.09215" lon="3.52797">
        <ele>348</ele>
        <time>2025-02-05T18:54:13Z</time>
      </trkpt>
      <trkpt lat="46.09213" lon="3.52683">
        <ele>355</ele>
        <time>2025-02-05T18:54:32Z</time>
      </trkpt>
      <trkpt lat="46.09218" lon="3.52626">
        <ele>356</ele>
        <time>2025-02-05T18:54:41Z</time>
      </trkpt>
      <trkpt lat="46.09228" lon="3.52584">
        <ele>353</ele>
        <time>2025-02-05T18:54:48Z</time>
      </trkpt>
      <trkpt lat="46.09244" lon="3.52542">
        <ele>354</ele>
        <time>2025-02-05T18:54:56Z</time>
      </trkpt>
      <trkpt lat="46.09241" lon="3.52529">
        <ele>357</ele>
        <time>2025-02-05T18:54:58Z</time>
      </trkpt>
      <trkpt lat="46.09219" lon="3.52501">
        <ele>366</ele>
        <time>2025-02-05T18:55:05Z</time>
      </trkpt>
      <trkpt lat="46.09217" lon="3.52489">
        <ele>368</ele>
        <time>2025-02-05T18:55:07Z</time>
      </trkpt>
      <trkpt lat="46.09223" lon="3.52486">
        <ele>367</ele>
        <time>2025-02-05T18:55:08Z</time>
      </trkpt>
      <trkpt lat="46.0927" lon="3.525">
        <ele>356</ele>
        <time>2025-02-05T18:55:20Z</time>
      </trkpt>
      <trkpt lat="46.09282" lon="3.52496">
        <ele>355</ele>
        <time>2025-02-05T18:55:23Z</time>
      </trkpt>
      <trkpt lat="46.0931" lon="3.52488">
        <ele>352</ele>
        <time>2025-02-05T18:55:29Z</time>
      </trkpt>
      <trkpt lat="46.09322" lon="3.52468">
        <ele>352</ele>
        <time>2025-02-05T18:55:33Z</time>
      </trkpt>
      <trkpt lat="46.09328" lon="3.52441">
        <ele>354</ele>
        <time>2025-02-05T18:55:38Z</time>
      </trkpt>
      <trkpt lat="46.0932" lon="3.52415">
        <ele>357</ele>
        <time>2025-02-05T18:55:43Z</time>
      </trkpt>
      <trkpt lat="46.09291" lon="3.52367">
        <ele>360</ele>
        <time>2025-02-05T18:55:53Z</time>
      </trkpt>
      <trkpt lat="46.09305" lon="3.5241">
        <ele>360</ele>
        <time>2025-02-05T18:56:01Z</time>
      </trkpt>
      <trkpt lat="46.09305" lon="3.52432">
        <ele>359</ele>
        <time>2025-02-05T18:56:04Z</time>
      </trkpt>
      <trkpt lat="46.09291" lon="3.52439">
        <ele>360</ele>
        <time>2025-02-05T18:56:08Z</time>
      </trkpt>
      <trkpt lat="46.09265" lon="3.52421">
        <ele>368</ele>
        <time>2025-02-05T18:56:14Z</time>
      </trkpt>
      <trkpt lat="46.09199" lon="3.52389">
        <ele>379</ele>
        <time>2025-02-05T18:56:31Z</time>
      </trkpt>
      <trkpt lat="46.09093" lon="3.52362">
        <ele>398</ele>
        <time>2025-02-05T18:56:56Z</time>
      </trkpt>
      <trkpt lat="46.09046" lon="3.52315">
        <ele>408</ele>
        <time>2025-02-05T18:57:09Z</time>
      </trkpt>
      <trkpt lat="46.09009" lon="3.52308">
        <ele>415</ele>
        <time>2025-02-05T18:57:18Z</time>
      </trkpt>
      <trkpt lat="46.09014" lon="3.52362">
        <ele>410</ele>
        <time>2025-02-05T18:57:27Z</time>
      </trkpt>
      <trkpt lat="46.08984" lon="3.5233">
        <ele>416</ele>
        <time>2025-02-05T18:57:35Z</time>
      </trkpt>
      <trkpt lat="46.08944" lon="3.52315">
        <ele>421</ele>
        <time>2025-02-05T18:57:45Z</time>
      </trkpt>
      <trkpt lat="46.08917" lon="3.52308">
        <ele>425</ele>
        <time>2025-02-05T18:57:52Z</time>
      </trkpt>
      <trkpt lat="46.08879" lon="3.52306">
        <ele>422</ele>
        <time>2025-02-05T18:58:00Z</time>
      </trkpt>
      <trkpt lat="46.08865" lon="3.52285">
        <ele>426</ele>
        <time>2025-02-05T18:58:05Z</time>
      </trkpt>
      <trkpt lat="46.08858" lon="3.52265">
        <ele>429</ele>
        <time>2025-02-05T18:58:09Z</time>
      </trkpt>
      <trkpt lat="46.08886" lon="3.52232">
        <ele>438</ele>
        <time>2025-02-05T18:58:17Z</time>
      </trkpt>
      <trkpt lat="46.08898" lon="3.52215">
        <ele>441</ele>
        <time>2025-02-05T18:58:21Z</time>
      </trkpt>
      <trkpt lat="46.08913" lon="3.5218">
        <ele>447</ele>
        <time>2025-02-05T18:58:28Z</time>
      </trkpt>
      <trkpt lat="46.08919" lon="3.521">
        <ele>454</ele>
        <time>2025-02-05T18:58:41Z</time>
      </trkpt>
      <trkpt lat="46.08914" lon="3.52076">
        <ele>456</ele>
        <time>2025-02-05T18:58:45Z</time>
      </trkpt>
      <trkpt lat="46.0889" lon="3.52042">
        <ele>459</ele>
        <time>2025-02-05T18:58:53Z</time>
      </trkpt>
      <trkpt lat="46.08877" lon="3.52021">
        <ele>461</ele>
        <time>2025-02-05T18:58:57Z</time>
      </trkpt>
      <trkpt lat="46.08861" lon="3.51968">
        <ele>466</ele>
        <time>2025-02-05T18:59:07Z</time>
      </trkpt>
      <trkpt lat="46.08846" lon="3.51923">
        <ele>471</ele>
        <time>2025-02-05T18:59:15Z</time>
      </trkpt>
      <trkpt lat="46.0883" lon="3.51901">
        <ele>474</ele>
        <time>2025-02-05T18:59:20Z</time>
      </trkpt>
      <trkpt lat="46.0882" lon="3.51885">
        <ele>475</ele>
        <time>2025-02-05T18:59:23Z</time>
      </trkpt>
      <trkpt lat="46.08726" lon="3.51844">
        <ele>488</ele>
        <time>2025-02-05T18:59:46Z</time>
      </trkpt>
      <trkpt lat="46.08683" lon="3.51816">
        <ele>493</ele>
        <time>2025-02-05T18:59:57Z</time>
      </trkpt>
      <trkpt lat="46.08648" lon="3.51797">
        <ele>497</ele>
        <time>2025-02-05T19:00:06Z</time>
      </trkpt>
      <trkpt lat="46.08593" lon="3.51771">
        <ele>503</ele>
        <time>2025-02-05T19:00:20Z</time>
      </trkpt>
      <trkpt lat="46.08538" lon="3.51759">
        <ele>508</ele>
        <time>2025-02-05T19:00:33Z</time>
      </trkpt>
      <trkpt lat="46.08518" lon="3.51741">
        <ele>510</ele>
        <time>2025-02-05T19:00:38Z</time>
      </trkpt>
      <trkpt lat="46.08495" lon="3.51716">
        <ele>511</ele>
        <time>2025-02-05T19:00:45Z</time>
      </trkpt>
      <trkpt lat="46.08478" lon="3.51678">
        <ele>512</ele>
        <time>2025-02-05T19:00:52Z</time>
      </trkpt>
      <trkpt lat="46.08471" lon="3.51662">
        <ele>512</ele>
        <time>2025-02-05T19:00:55Z</time>
      </trkpt>
      <trkpt lat="46.08524" lon="3.51595">
        <ele>510</ele>
        <time>2025-02-05T19:01:12Z</time>
      </trkpt>
      <trkpt lat="46.08598" lon="3.51498">
        <ele>506</ele>
        <time>2025-02-05T19:01:35Z</time>
      </trkpt>
      <trkpt lat="46.08596" lon="3.51489">
        <ele>506</ele>
        <time>2025-02-05T19:01:37Z</time>
      </trkpt>
      <trkpt lat="46.086" lon="3.51473">
        <ele>506</ele>
        <time>2025-02-05T19:01:39Z</time>
      </trkpt>
      <trkpt lat="46.08624" lon="3.51412">
        <ele>505</ele>
        <time>2025-02-05T19:01:51Z</time>
      </trkpt>
      <trkpt lat="46.08646" lon="3.51364">
        <ele>503</ele>
        <time>2025-02-05T19:02:00Z</time>
      </trkpt>
      <trkpt lat="46.08656" lon="3.5133">
        <ele>502</ele>
        <time>2025-02-05T19:02:06Z</time>
      </trkpt>
      <trkpt lat="46.08685" lon="3.51208">
        <ele>500</ele>
        <time>2025-02-05T19:02:27Z</time>
      </trkpt>
      <trkpt lat="46.08694" lon="3.51163">
        <ele>501</ele>
        <time>2025-02-05T19:02:34Z</time>
      </trkpt>
      <trkpt lat="46.08695" lon="3.51117">
        <ele>501</ele>
        <time>2025-02-05T19:02:42Z</time>
      </trkpt>
      <trkpt lat="46.08692" lon="3.51064">
        <ele>501</ele>
        <time>2025-02-05T19:02:51Z</time>
      </trkpt>
      <trkpt lat="46.0868" lon="3.50997">
        <ele>500</ele>
        <time>2025-02-05T19:03:02Z</time>
      </trkpt>
      <trkpt lat="46.08659" lon="3.50943">
        <ele>501</ele>
        <time>2025-02-05T19:03:12Z</time>
      </trkpt>
      <trkpt lat="46.0863" lon="3.50891">
        <ele>501</ele>
        <time>2025-02-05T19:03:23Z</time>
      </trkpt>
      <trkpt lat="46.08598" lon="3.50839">
        <ele>506</ele>
        <time>2025-02-05T19:03:34Z</time>
      </trkpt>
      <trkpt lat="46.08491" lon="3.50638">
        <ele>506</ele>
        <time>2025-02-05T19:04:15Z</time>
      </trkpt>
      <trkpt lat="46.08466" lon="3.50587">
        <ele>504</ele>
        <time>2025-02-05T19:04:25Z</time>
      </trkpt>
      <trkpt lat="46.0846" lon="3.5058">
        <ele>503</ele>
        <time>2025-02-05T19:04:27Z</time>
      </trkpt>
      <trkpt lat="46.08466" lon="3.50587">
        <ele>504</ele>
        <time>2025-02-05T19:04:29Z</time>
      </trkpt>
      <trkpt lat="46.08461" lon="3.50571">
        <ele>503</ele>
        <time>2025-02-05T19:04:31Z</time>
      </trkpt>
      <trkpt lat="46.0845" lon="3.5054">
        <ele>502</ele>
        <time>2025-02-05T19:04:37Z</time>
      </trkpt>
      <trkpt lat="46.08442" lon="3.50512">
        <ele>501</ele>
        <time>2025-02-05T19:04:42Z</time>
      </trkpt>
      <trkpt lat="46.08425" lon="3.50386">
        <ele>496</ele>
        <time>2025-02-05T19:05:03Z</time>
      </trkpt>
      <trkpt lat="46.08423" lon="3.50353">
        <ele>496</ele>
        <time>2025-02-05T19:05:08Z</time>
      </trkpt>
      <trkpt lat="46.08423" lon="3.50326">
        <ele>495</ele>
        <time>2025-02-05T19:05:12Z</time>
      </trkpt>
      <trkpt lat="46.08428" lon="3.50288">
        <ele>493</ele>
        <time>2025-02-05T19:05:19Z</time>
      </trkpt>
      <trkpt lat="46.08438" lon="3.50252">
        <ele>491</ele>
        <time>2025-02-05T19:05:25Z</time>
      </trkpt>
      <trkpt lat="46.08453" lon="3.50211">
        <ele>489</ele>
        <time>2025-02-05T19:05:33Z</time>
      </trkpt>
      <trkpt lat="46.08475" lon="3.50166">
        <ele>487</ele>
        <time>2025-02-05T19:05:41Z</time>
      </trkpt>
      <trkpt lat="46.08495" lon="3.50133">
        <ele>485</ele>
        <time>2025-02-05T19:05:49Z</time>
      </trkpt>
      <trkpt lat="46.08508" lon="3.50127">
        <ele>485</ele>
        <time>2025-02-05T19:05:52Z</time>
      </trkpt>
      <trkpt lat="46.08528" lon="3.50112">
        <ele>483</ele>
        <time>2025-02-05T19:05:57Z</time>
      </trkpt>
      <trkpt lat="46.08557" lon="3.50081">
        <ele>481</ele>
        <time>2025-02-05T19:06:05Z</time>
      </trkpt>
      <trkpt lat="46.08579" lon="3.50065">
        <ele>479</ele>
        <time>2025-02-05T19:06:11Z</time>
      </trkpt>
      <trkpt lat="46.08639" lon="3.50036">
        <ele>472</ele>
        <time>2025-02-05T19:06:26Z</time>
      </trkpt>
      <trkpt lat="46.08653" lon="3.50032">
        <ele>471</ele>
        <time>2025-02-05T19:06:29Z</time>
      </trkpt>
      <trkpt lat="46.08723" lon="3.50021">
        <ele>463</ele>
        <time>2025-02-05T19:06:46Z</time>
      </trkpt>
      <trkpt lat="46.08756" lon="3.49998">
        <ele>459</ele>
        <time>2025-02-05T19:06:54Z</time>
      </trkpt>
      <trkpt lat="46.08773" lon="3.4998">
        <ele>457</ele>
        <time>2025-02-05T19:06:59Z</time>
      </trkpt>
      <trkpt lat="46.08786" lon="3.49959">
        <ele>456</ele>
        <time>2025-02-05T19:07:04Z</time>
      </trkpt>
      <trkpt lat="46.08805" lon="3.49921">
        <ele>454</ele>
        <time>2025-02-05T19:07:11Z</time>
      </trkpt>
      <trkpt lat="46.08826" lon="3.49886">
        <ele>451</ele>
        <time>2025-02-05T19:07:19Z</time>
      </trkpt>
      <trkpt lat="46.0884" lon="3.49853">
        <ele>448</ele>
        <time>2025-02-05T19:07:25Z</time>
      </trkpt>
      <trkpt lat="46.08873" lon="3.49744">
        <ele>444</ele>
        <time>2025-02-05T19:07:44Z</time>
      </trkpt>
      <trkpt lat="46.08879" lon="3.49709">
        <ele>442</ele>
        <time>2025-02-05T19:07:50Z</time>
      </trkpt>
      <trkpt lat="46.08882" lon="3.49655">
        <ele>438</ele>
        <time>2025-02-05T19:07:59Z</time>
      </trkpt>
      <trkpt lat="46.08881" lon="3.49605">
        <ele>435</ele>
        <time>2025-02-05T19:08:07Z</time>
      </trkpt>
      <trkpt lat="46.08889" lon="3.49519">
        <ele>431</ele>
        <time>2025-02-05T19:08:21Z</time>
      </trkpt>
      <trkpt lat="46.08892" lon="3.49441">
        <ele>427</ele>
        <time>2025-02-05T19:08:34Z</time>
      </trkpt>
      <trkpt lat="46.08895" lon="3.49396">
        <ele>425</ele>
        <time>2025-02-05T19:08:41Z</time>
      </trkpt>
      <trkpt lat="46.08884" lon="3.49301">
        <ele>419</ele>
        <time>2025-02-05T19:08:57Z</time>
      </trkpt>
      <trkpt lat="46.08871" lon="3.49281">
        <ele>417</ele>
        <time>2025-02-05T19:09:01Z</time>
      </trkpt>
      <trkpt lat="46.08861" lon="3.49261">
        <ele>415</ele>
        <time>2025-02-05T19:09:05Z</time>
      </trkpt>
      <trkpt lat="46.08855" lon="3.49241">
        <ele>414</ele>
        <time>2025-02-05T19:09:09Z</time>
      </trkpt>
      <trkpt lat="46.08842" lon="3.492">
        <ele>410</ele>
        <time>2025-02-05T19:09:16Z</time>
      </trkpt>
      <trkpt lat="46.08838" lon="3.49199">
        <ele>410</ele>
        <time>2025-02-05T19:09:17Z</time>
      </trkpt>
      <trkpt lat="46.08834" lon="3.49198">
        <ele>409</ele>
        <time>2025-02-05T19:09:18Z</time>
      </trkpt>
      <trkpt lat="46.08828" lon="3.49201">
        <ele>409</ele>
        <time>2025-02-05T19:09:19Z</time>
      </trkpt>
      <trkpt lat="46.08821" lon="3.49215">
        <ele>409</ele>
        <time>2025-02-05T19:09:22Z</time>
      </trkpt>
      <trkpt lat="46.08817" lon="3.49229">
        <ele>409</ele>
        <time>2025-02-05T19:09:25Z</time>
      </trkpt>
      <trkpt lat="46.08815" lon="3.49242">
        <ele>410</ele>
        <time>2025-02-05T19:09:27Z</time>
      </trkpt>
      <trkpt lat="46.08817" lon="3.49288">
        <ele>412</ele>
        <time>2025-02-05T19:09:34Z</time>
      </trkpt>
      <trkpt lat="46.08815" lon="3.49325">
        <ele>414</ele>
        <time>2025-02-05T19:09:40Z</time>
      </trkpt>
      <trkpt lat="46.08808" lon="3.49345">
        <ele>414</ele>
        <time>2025-02-05T19:09:44Z</time>
      </trkpt>
      <trkpt lat="46.08801" lon="3.49356">
        <ele>415</ele>
        <time>2025-02-05T19:09:46Z</time>
      </trkpt>
      <trkpt lat="46.08796" lon="3.49356">
        <ele>415</ele>
        <time>2025-02-05T19:09:47Z</time>
      </trkpt>
      <trkpt lat="46.08783" lon="3.49344">
        <ele>413</ele>
        <time>2025-02-05T19:09:51Z</time>
      </trkpt>
      <trkpt lat="46.08774" lon="3.49318">
        <ele>410</ele>
        <time>2025-02-05T19:09:56Z</time>
      </trkpt>
      <trkpt lat="46.08727" lon="3.49292">
        <ele>407</ele>
        <time>2025-02-05T19:10:08Z</time>
      </trkpt>
      <trkpt lat="46.08686" lon="3.49314">
        <ele>410</ele>
        <time>2025-02-05T19:10:18Z</time>
      </trkpt>
      <trkpt lat="46.08677" lon="3.49318">
        <ele>411</ele>
        <time>2025-02-05T19:10:20Z</time>
      </trkpt>
      <trkpt lat="46.08667" lon="3.49313">
        <ele>411</ele>
        <time>2025-02-05T19:10:22Z</time>
      </trkpt>
      <trkpt lat="46.08679" lon="3.49278">
        <ele>410</ele>
        <time>2025-02-05T19:10:29Z</time>
      </trkpt>
      <trkpt lat="46.08667" lon="3.49223">
        <ele>410</ele>
        <time>2025-02-05T19:10:38Z</time>
      </trkpt>
      <trkpt lat="46.08663" lon="3.49191">
        <ele>410</ele>
        <time>2025-02-05T19:10:43Z</time>
      </trkpt>
      <trkpt lat="46.08656" lon="3.49185">
        <ele>411</ele>
        <time>2025-02-05T19:10:45Z</time>
      </trkpt>
      <trkpt lat="46.08649" lon="3.49184">
        <ele>412</ele>
        <time>2025-02-05T19:10:47Z</time>
      </trkpt>
      <trkpt lat="46.08609" lon="3.49214">
        <ele>421</ele>
        <time>2025-02-05T19:10:57Z</time>
      </trkpt>
      <trkpt lat="46.08576" lon="3.4922">
        <ele>427</ele>
        <time>2025-02-05T19:11:05Z</time>
      </trkpt>
      <trkpt lat="46.08538" lon="3.49211">
        <ele>431</ele>
        <time>2025-02-05T19:11:14Z</time>
      </trkpt>
      <trkpt lat="46.08497" lon="3.49209">
        <ele>435</ele>
        <time>2025-02-05T19:11:24Z</time>
      </trkpt>
      <trkpt lat="46.08434" lon="3.4924">
        <ele>438</ele>
        <time>2025-02-05T19:11:39Z</time>
      </trkpt>
      <trkpt lat="46.08393" lon="3.49269">
        <ele>442</ele>
        <time>2025-02-05T19:11:50Z</time>
      </trkpt>
      <trkpt lat="46.08363" lon="3.49268">
        <ele>443</ele>
        <time>2025-02-05T19:11:57Z</time>
      </trkpt>
      <trkpt lat="46.08326" lon="3.49285">
        <ele>447</ele>
        <time>2025-02-05T19:12:06Z</time>
      </trkpt>
      <trkpt lat="46.08312" lon="3.49283">
        <ele>448</ele>
        <time>2025-02-05T19:12:09Z</time>
      </trkpt>
      <trkpt lat="46.08303" lon="3.49265">
        <ele>449</ele>
        <time>2025-02-05T19:12:13Z</time>
      </trkpt>
      <trkpt lat="46.08302" lon="3.49206">
        <ele>445</ele>
        <time>2025-02-05T19:12:23Z</time>
      </trkpt>
      <trkpt lat="46.08313" lon="3.49128">
        <ele>438</ele>
        <time>2025-02-05T19:12:35Z</time>
      </trkpt>
      <trkpt lat="46.08306" lon="3.49096">
        <ele>437</ele>
        <time>2025-02-05T19:12:41Z</time>
      </trkpt>
      <trkpt lat="46.08256" lon="3.49071">
        <ele>439</ele>
        <time>2025-02-05T19:12:53Z</time>
      </trkpt>
      <trkpt lat="46.08205" lon="3.4904">
        <ele>435</ele>
        <time>2025-02-05T19:13:06Z</time>
      </trkpt>
      <trkpt lat="46.0812" lon="3.4901">
        <ele>438</ele>
        <time>2025-02-05T19:13:27Z</time>
      </trkpt>
      <trkpt lat="46.0811" lon="3.48987">
        <ele>436</ele>
        <time>2025-02-05T19:13:31Z</time>
      </trkpt>
      <trkpt lat="46.08117" lon="3.48926">
        <ele>428</ele>
        <time>2025-02-05T19:13:41Z</time>
      </trkpt>
      <trkpt lat="46.08114" lon="3.48906">
        <ele>425</ele>
        <time>2025-02-05T19:13:44Z</time>
      </trkpt>
      <trkpt lat="46.08083" lon="3.48887">
        <ele>424</ele>
        <time>2025-02-05T19:13:52Z</time>
      </trkpt>
      <trkpt lat="46.08063" lon="3.48853">
        <ele>419</ele>
        <time>2025-02-05T19:13:59Z</time>
      </trkpt>
      <trkpt lat="46.08052" lon="3.48832">
        <ele>415</ele>
        <time>2025-02-05T19:14:04Z</time>
      </trkpt>
      <trkpt lat="46.08042" lon="3.48778">
        <ele>405</ele>
        <time>2025-02-05T19:14:13Z</time>
      </trkpt>
      <trkpt lat="46.08009" lon="3.48602">
        <ele>384</ele>
        <time>2025-02-05T19:14:42Z</time>
      </trkpt>
      <trkpt lat="46.08015" lon="3.4859">
        <ele>384</ele>
        <time>2025-02-05T19:14:45Z</time>
      </trkpt>
      <trkpt lat="46.08097" lon="3.48574">
        <ele>386</ele>
        <time>2025-02-05T19:15:04Z</time>
      </trkpt>
      <trkpt lat="46.08106" lon="3.48568">
        <ele>385</ele>
        <time>2025-02-05T19:15:06Z</time>
      </trkpt>
      <trkpt lat="46.08112" lon="3.48545">
        <ele>382</ele>
        <time>2025-02-05T19:15:10Z</time>
      </trkpt>
      <trkpt lat="46.08124" lon="3.48542">
        <ele>382</ele>
        <time>2025-02-05T19:15:13Z</time>
      </trkpt>
      <trkpt lat="46.08157" lon="3.48567">
        <ele>383</ele>
        <time>2025-02-05T19:15:22Z</time>
      </trkpt>
      <trkpt lat="46.08178" lon="3.48568">
        <ele>383</ele>
        <time>2025-02-05T19:15:27Z</time>
      </trkpt>
      <trkpt lat="46.08187" lon="3.48542">
        <ele>380</ele>
        <time>2025-02-05T19:15:31Z</time>
      </trkpt>
      <trkpt lat="46.08202" lon="3.48515">
        <ele>377</ele>
        <time>2025-02-05T19:15:37Z</time>
      </trkpt>
      <trkpt lat="46.08221" lon="3.4849">
        <ele>375</ele>
        <time>2025-02-05T19:15:43Z</time>
      </trkpt>
      <trkpt lat="46.08236" lon="3.48483">
        <ele>373</ele>
        <time>2025-02-05T19:15:47Z</time>
      </trkpt>
      <trkpt lat="46.08261" lon="3.48481">
        <ele>370</ele>
        <time>2025-02-05T19:15:53Z</time>
      </trkpt>
      <trkpt lat="46.08278" lon="3.48492">
        <ele>368</ele>
        <time>2025-02-05T19:15:57Z</time>
      </trkpt>
      <trkpt lat="46.08289" lon="3.4851">
        <ele>367</ele>
        <time>2025-02-05T19:16:01Z</time>
      </trkpt>
      <trkpt lat="46.08296" lon="3.48541">
        <ele>367</ele>
        <time>2025-02-05T19:16:06Z</time>
      </trkpt>
      <trkpt lat="46.08292" lon="3.48573">
        <ele>371</ele>
        <time>2025-02-05T19:16:11Z</time>
      </trkpt>
      <trkpt lat="46.08302" lon="3.48644">
        <ele>375</ele>
        <time>2025-02-05T19:16:23Z</time>
      </trkpt>
      <trkpt lat="46.08325" lon="3.48712">
        <ele>378</ele>
        <time>2025-02-05T19:16:35Z</time>
      </trkpt>
      <trkpt lat="46.08334" lon="3.48703">
        <ele>374</ele>
        <time>2025-02-05T19:16:38Z</time>
      </trkpt>
      <trkpt lat="46.08335" lon="3.48679">
        <ele>370</ele>
        <time>2025-02-05T19:16:42Z</time>
      </trkpt>
      <trkpt lat="46.08352" lon="3.48603">
        <ele>360</ele>
        <time>2025-02-05T19:16:55Z</time>
      </trkpt>
      <trkpt lat="46.08367" lon="3.486">
        <ele>359</ele>
        <time>2025-02-05T19:16:58Z</time>
      </trkpt>
      <trkpt lat="46.08437" lon="3.48618">
        <ele>361</ele>
        <time>2025-02-05T19:17:15Z</time>
      </trkpt>
      <trkpt lat="46.08445" lon="3.48612">
        <ele>361</ele>
        <time>2025-02-05T19:17:17Z</time>
      </trkpt>
      <trkpt lat="46.08447" lon="3.4861">
        <ele>361</ele>
        <time>2025-02-05T19:17:18Z</time>
      </trkpt>
      <trkpt lat="46.08447" lon="3.48609">
        <ele>361</ele>
        <time>2025-02-05T19:17:18Z</time>
      </trkpt>
      <trkpt lat="46.08447" lon="3.48604">
        <ele>360</ele>
        <time>2025-02-05T19:17:19Z</time>
      </trkpt>
      <trkpt lat="46.08439" lon="3.4859">
        <ele>357</ele>
        <time>2025-02-05T19:17:21Z</time>
      </trkpt>
      <trkpt lat="46.08412" lon="3.48559">
        <ele>355</ele>
        <time>2025-02-05T19:17:29Z</time>
      </trkpt>
      <trkpt lat="46.08406" lon="3.48541">
        <ele>356</ele>
        <time>2025-02-05T19:17:33Z</time>
      </trkpt>
      <trkpt lat="46.08406" lon="3.48513">
        <ele>357</ele>
        <time>2025-02-05T19:17:37Z</time>
      </trkpt>
      <trkpt lat="46.08433" lon="3.48409">
        <ele>361</ele>
        <time>2025-02-05T19:17:55Z</time>
      </trkpt>
      <trkpt lat="46.08434" lon="3.48403">
        <ele>361</ele>
        <time>2025-02-05T19:17:56Z</time>
      </trkpt>
      <trkpt lat="46.08443" lon="3.48401">
        <ele>363</ele>
        <time>2025-02-05T19:17:58Z</time>
      </trkpt>
      <trkpt lat="46.0849" lon="3.48502">
        <ele>375</ele>
        <time>2025-02-05T19:18:18Z</time>
      </trkpt>
      <trkpt lat="46.08516" lon="3.48534">
        <ele>374</ele>
        <time>2025-02-05T19:18:26Z</time>
      </trkpt>
      <trkpt lat="46.08538" lon="3.48546">
        <ele>375</ele>
        <time>2025-02-05T19:18:32Z</time>
      </trkpt>
      <trkpt lat="46.0857" lon="3.48559">
        <ele>377</ele>
        <time>2025-02-05T19:18:39Z</time>
      </trkpt>
      <trkpt lat="46.08635" lon="3.48595">
        <ele>380</ele>
        <time>2025-02-05T19:18:56Z</time>
      </trkpt>
      <trkpt lat="46.08666" lon="3.48601">
        <ele>383</ele>
        <time>2025-02-05T19:19:03Z</time>
      </trkpt>
      <trkpt lat="46.08717" lon="3.48652">
        <ele>385</ele>
        <time>2025-02-05T19:19:17Z</time>
      </trkpt>
      <trkpt lat="46.08737" lon="3.48667">
        <ele>388</ele>
        <time>2025-02-05T19:19:23Z</time>
      </trkpt>
      <trkpt lat="46.08802" lon="3.48733">
        <ele>394</ele>
        <time>2025-02-05T19:19:41Z</time>
      </trkpt>
      <trkpt lat="46.08888" lon="3.4883">
        <ele>403</ele>
        <time>2025-02-05T19:20:07Z</time>
      </trkpt>
      <trkpt lat="46.08896" lon="3.48833">
        <ele>404</ele>
        <time>2025-02-05T19:20:09Z</time>
      </trkpt>
      <trkpt lat="46.08903" lon="3.48829">
        <ele>405</ele>
        <time>2025-02-05T19:20:10Z</time>
      </trkpt>
      <trkpt lat="46.08904" lon="3.48828">
        <ele>405</ele>
        <time>2025-02-05T19:20:11Z</time>
      </trkpt>
      <trkpt lat="46.08905" lon="3.48825">
        <ele>405</ele>
        <time>2025-02-05T19:20:11Z</time>
      </trkpt>
      <trkpt lat="46.08919" lon="3.48701">
        <ele>405</ele>
        <time>2025-02-05T19:20:32Z</time>
      </trkpt>
      <trkpt lat="46.08923" lon="3.48684">
        <ele>405</ele>
        <time>2025-02-05T19:20:34Z</time>
      </trkpt>
      <trkpt lat="46.0894" lon="3.48675">
        <ele>406</ele>
        <time>2025-02-05T19:20:39Z</time>
      </trkpt>
      <trkpt lat="46.08949" lon="3.48665">
        <ele>407</ele>
        <time>2025-02-05T19:20:41Z</time>
      </trkpt>
      <trkpt lat="46.0895" lon="3.48658">
        <ele>406</ele>
        <time>2025-02-05T19:20:43Z</time>
      </trkpt>
      <trkpt lat="46.08945" lon="3.48642">
        <ele>404</ele>
        <time>2025-02-05T19:20:45Z</time>
      </trkpt>
      <trkpt lat="46.08967" lon="3.48588">
        <ele>403</ele>
        <time>2025-02-05T19:20:56Z</time>
      </trkpt>
      <trkpt lat="46.08971" lon="3.48579">
        <ele>403</ele>
        <time>2025-02-05T19:20:57Z</time>
      </trkpt>
      <trkpt lat="46.08968" lon="3.48565">
        <ele>402</ele>
        <time>2025-02-05T19:21:00Z</time>
      </trkpt>
      <trkpt lat="46.08977" lon="3.48498">
        <ele>399</ele>
        <time>2025-02-05T19:21:11Z</time>
      </trkpt>
      <trkpt lat="46.08974" lon="3.4848">
        <ele>396</ele>
        <time>2025-02-05T19:21:14Z</time>
      </trkpt>
      <trkpt lat="46.08974" lon="3.48462">
        <ele>395</ele>
        <time>2025-02-05T19:21:17Z</time>
      </trkpt>
      <trkpt lat="46.08978" lon="3.48441">
        <ele>393</ele>
        <time>2025-02-05T19:21:20Z</time>
      </trkpt>
      <trkpt lat="46.08988" lon="3.48425">
        <ele>392</ele>
        <time>2025-02-05T19:21:24Z</time>
      </trkpt>
      <trkpt lat="46.09001" lon="3.48419">
        <ele>392</ele>
        <time>2025-02-05T19:21:27Z</time>
      </trkpt>
      <trkpt lat="46.09041" lon="3.48449">
        <ele>398</ele>
        <time>2025-02-05T19:21:37Z</time>
      </trkpt>
      <trkpt lat="46.09055" lon="3.48433">
        <ele>398</ele>
        <time>2025-02-05T19:21:41Z</time>
      </trkpt>
      <trkpt lat="46.09066" lon="3.48409">
        <ele>396</ele>
        <time>2025-02-05T19:21:46Z</time>
      </trkpt>
      <trkpt lat="46.09091" lon="3.48372">
        <ele>392</ele>
        <time>2025-02-05T19:21:55Z</time>
      </trkpt>
      <trkpt lat="46.09125" lon="3.48331">
        <ele>389</ele>
        <time>2025-02-05T19:22:05Z</time>
      </trkpt>
      <trkpt lat="46.09133" lon="3.48326">
        <ele>389</ele>
        <time>2025-02-05T19:22:07Z</time>
      </trkpt>
      <trkpt lat="46.0919" lon="3.48301">
        <ele>388</ele>
        <time>2025-02-05T19:22:21Z</time>
      </trkpt>
      <trkpt lat="46.09215" lon="3.48285">
        <ele>386</ele>
        <time>2025-02-05T19:22:27Z</time>
      </trkpt>
      <trkpt lat="46.09233" lon="3.4827">
        <ele>384</ele>
        <time>2025-02-05T19:22:32Z</time>
      </trkpt>
      <trkpt lat="46.09245" lon="3.48252">
        <ele>383</ele>
        <time>2025-02-05T19:22:36Z</time>
      </trkpt>
      <trkpt lat="46.09281" lon="3.48184">
        <ele>382</ele>
        <time>2025-02-05T19:22:50Z</time>
      </trkpt>
      <trkpt lat="46.09295" lon="3.48162">
        <ele>382</ele>
        <time>2025-02-05T19:22:55Z</time>
      </trkpt>
      <trkpt lat="46.09311" lon="3.48144">
        <ele>382</ele>
        <time>2025-02-05T19:23:00Z</time>
      </trkpt>
      <trkpt lat="46.09341" lon="3.48118">
        <ele>383</ele>
        <time>2025-02-05T19:23:08Z</time>
      </trkpt>
      <trkpt lat="46.09363" lon="3.48093">
        <ele>381</ele>
        <time>2025-02-05T19:23:14Z</time>
      </trkpt>
      <trkpt lat="46.09413" lon="3.48004">
        <ele>379</ele>
        <time>2025-02-05T19:23:33Z</time>
      </trkpt>
      <trkpt lat="46.09443" lon="3.47973">
        <ele>380</ele>
        <time>2025-02-05T19:23:41Z</time>
      </trkpt>
      <trkpt lat="46.09476" lon="3.47948">
        <ele>380</ele>
        <time>2025-02-05T19:23:50Z</time>
      </trkpt>
      <trkpt lat="46.09529" lon="3.47918">
        <ele>380</ele>
        <time>2025-02-05T19:24:03Z</time>
      </trkpt>
      <trkpt lat="46.09541" lon="3.47908">
        <ele>380</ele>
        <time>2025-02-05T19:24:07Z</time>
      </trkpt>
      <trkpt lat="46.09666" lon="3.47912">
        <ele>378</ele>
        <time>2025-02-05T19:24:36Z</time>
      </trkpt>
      <trkpt lat="46.09675" lon="3.47917">
        <ele>378</ele>
        <time>2025-02-05T19:24:38Z</time>
      </trkpt>
      <trkpt lat="46.09679" lon="3.47917">
        <ele>378</ele>
        <time>2025-02-05T19:24:39Z</time>
      </trkpt>
      <trkpt lat="46.09675" lon="3.47917">
        <ele>378</ele>
        <time>2025-02-05T19:24:40Z</time>
      </trkpt>
      <trkpt lat="46.09727" lon="3.4793">
        <ele>376.4</ele>
      </trkpt>
      <trkpt lat="46.09788" lon="3.47971">
        <ele>373.7</ele>
        <time>2025-02-05T19:25:16Z</time>
      </trkpt>
      <trkpt lat="46.09826" lon="3.47986">
        <ele>372</ele>
      </trkpt>
      <trkpt lat="46.0985" lon="3.48033">
        <ele>370.3</ele>
      </trkpt>
      <trkpt lat="46.09895" lon="3.48052">
        <ele>367.5</ele>
        <time>2025-02-05T19:25:20Z</time>
      </trkpt>
      <trkpt lat="46.10005" lon="3.47904">
        <ele>374.4</ele>
      </trkpt>
      <trkpt lat="46.10154" lon="3.47683">
        <ele>378.7</ele>
      </trkpt>
      <trkpt lat="46.10083" lon="3.47547">
        <ele>392</ele>
        <time>2025-02-05T19:26:38Z</time>
      </trkpt>
      <trkpt lat="46.10119" lon="3.47522">
        <ele>391</ele>
        <time>2025-02-05T19:26:47Z</time>
      </trkpt>
      <trkpt lat="46.10158" lon="3.47499">
        <ele>390</ele>
        <time>2025-02-05T19:26:57Z</time>
      </trkpt>
      <trkpt lat="46.10189" lon="3.47476">
        <ele>390</ele>
        <time>2025-02-05T19:27:05Z</time>
      </trkpt>
      <trkpt lat="46.10202" lon="3.47471">
        <ele>390</ele>
        <time>2025-02-05T19:27:08Z</time>
      </trkpt>
      <trkpt lat="46.10213" lon="3.47473">
        <ele>390</ele>
        <time>2025-02-05T19:27:11Z</time>
      </trkpt>
      <trkpt lat="46.10218" lon="3.47475">
        <ele>392.1</ele>
        <time>2025-02-05T19:27:13Z</time>
      </trkpt>
    </trkseg>
  </trk>
</gpx>